KAL006 KLAS-RKSI
Flight info
| Callsign | KAL006 |
|---|---|
| Flight time | N/A |
| Altitude | 32000 |
| Route | JOHKR5 KENNO DCT OAL DCT RBL DCT LINUZ DCT NATTE DCT 43N130W 49N140W/N0484F340 53N150W 53N160W DCT DUT G215 SYA/N0489F360 G215 NRKEY/N0483F370 R220 NUBDA/N0474F380 R220 NODAN R217 ASTER Y514 SDE Y512 GTC Y142 SAMON Y14 SUGNO Y16 SAPRA Y685 GUKDO |
| Aircraft | B77W/H-SDE2FGHIJ1J3J5M1P2RWXYZ/LB1D1 |
Departure
| Time | 2026-05-07 23:19 |
|---|---|
| Airport | Harry Reid International Airport (KLAS) |
Arrival
| Time | N/A |
|---|---|
| Airport | Incheon International Airport (RKSI) |
| Time | Latitude | Longitude | Altitude | Speed | Heading |
|---|---|---|---|---|---|
| 2026-05-07 22:35 | 36.08529 | -115.13367 | 2072 ft | 0 kts | 360° |
| 2026-05-07 23:04 | 36.08528 | -115.13367 | 2074 ft | 1 kts | 360° |
| 2026-05-07 23:04 | 36.08513 | -115.13367 | 2076 ft | 2 kts | 360° |
| 2026-05-07 23:04 | 36.08498 | -115.13367 | 2077 ft | 2 kts | 0° |
| 2026-05-07 23:04 | 36.08483 | -115.13367 | 2076 ft | 2 kts | 360° |
| 2026-05-07 23:05 | 36.08468 | -115.13367 | 2075 ft | 2 kts | 0° |
| 2026-05-07 23:05 | 36.08453 | -115.13370 | 2074 ft | 2 kts | 29° |
| 2026-05-07 23:05 | 36.08442 | -115.13381 | 2074 ft | 2 kts | 56° |
| 2026-05-07 23:05 | 36.08436 | -115.13398 | 2074 ft | 2 kts | 81° |
| 2026-05-07 23:06 | 36.08436 | -115.13416 | 2074 ft | 2 kts | 105° |
| 2026-05-07 23:06 | 36.08442 | -115.13432 | 2074 ft | 1 kts | 131° |
| 2026-05-07 23:06 | 36.08447 | -115.13438 | 2075 ft | 0 kts | 136° |
| 2026-05-07 23:09 | 36.08445 | -115.13436 | 2075 ft | 1 kts | 136° |
| 2026-05-07 23:10 | 36.08432 | -115.13419 | 2075 ft | 4 kts | 134° |
| 2026-05-07 23:10 | 36.08403 | -115.13383 | 2074 ft | 7 kts | 134° |
| 2026-05-07 23:10 | 36.08361 | -115.13358 | 2075 ft | 7 kts | 195° |
| 2026-05-07 23:10 | 36.08308 | -115.13373 | 2076 ft | 8 kts | 186° |
| 2026-05-07 23:11 | 36.08247 | -115.13376 | 2077 ft | 9 kts | 180° |
| 2026-05-07 23:11 | 36.08181 | -115.13376 | 2079 ft | 9 kts | 180° |
| 2026-05-07 23:11 | 36.08115 | -115.13376 | 2081 ft | 9 kts | 180° |
| 2026-05-07 23:11 | 36.08043 | -115.13376 | 2082 ft | 10 kts | 180° |
| 2026-05-07 23:12 | 36.07967 | -115.13376 | 2084 ft | 11 kts | 180° |
| 2026-05-07 23:12 | 36.07890 | -115.13376 | 2085 ft | 9 kts | 180° |
| 2026-05-07 23:12 | 36.07837 | -115.13358 | 2086 ft | 7 kts | 135° |
| 2026-05-07 23:12 | 36.07827 | -115.13291 | 2084 ft | 9 kts | 91° |
| 2026-05-07 23:13 | 36.07827 | -115.13204 | 2083 ft | 10 kts | 90° |
| 2026-05-07 23:13 | 36.07827 | -115.13103 | 2079 ft | 13 kts | 90° |
| 2026-05-07 23:13 | 36.07827 | -115.12979 | 2075 ft | 15 kts | 90° |
| 2026-05-07 23:13 | 36.07828 | -115.12848 | 2073 ft | 15 kts | 90° |
| 2026-05-07 23:14 | 36.07827 | -115.12713 | 2070 ft | 15 kts | 90° |
| 2026-05-07 23:14 | 36.07827 | -115.12577 | 2068 ft | 15 kts | 90° |
| 2026-05-07 23:14 | 36.07827 | -115.12441 | 2065 ft | 16 kts | 90° |
| 2026-05-07 23:14 | 36.07827 | -115.12311 | 2063 ft | 12 kts | 93° |
| 2026-05-07 23:15 | 36.07792 | -115.12216 | 2062 ft | 11 kts | 129° |
| 2026-05-07 23:15 | 36.07758 | -115.12164 | 2061 ft | 0 kts | 129° |
| 2026-05-07 23:15 | 36.07758 | -115.12163 | 2061 ft | 0 kts | 129° |
| 2026-05-07 23:17 | 36.07757 | -115.12163 | 2062 ft | 0 kts | 129° |
| 2026-05-07 23:17 | 36.07744 | -115.12147 | 2062 ft | 4 kts | 141° |
| 2026-05-07 23:17 | 36.07703 | -115.12127 | 2063 ft | 6 kts | 174° |
| 2026-05-07 23:17 | 36.07666 | -115.12127 | 2063 ft | 3 kts | 190° |
| 2026-05-07 23:18 | 36.07647 | -115.12146 | 2063 ft | 4 kts | 246° |
| 2026-05-07 23:18 | 36.07644 | -115.12204 | 2064 ft | 17 kts | 270° |
| 2026-05-07 23:18 | 36.07643 | -115.12647 | 2073 ft | 84 kts | 270° |
| 2026-05-07 23:18 | 36.07642 | -115.13640 | 2097 ft | 145 kts | 270° |
| 2026-05-07 23:19 | 36.07641 | -115.15100 | 2144 ft | 196 kts | 270° |
| 2026-05-07 23:19 | 36.07642 | -115.16861 | 2558 ft | 212 kts | 271° |
| 2026-05-07 23:19 | 36.07638 | -115.18668 | 3371 ft | 214 kts | 271° |
| 2026-05-07 23:19 | 36.07622 | -115.20494 | 4189 ft | 210 kts | 266° |
| 2026-05-07 23:20 | 36.07402 | -115.22295 | 4518 ft | 220 kts | 262° |
| 2026-05-07 23:20 | 36.07052 | -115.24123 | 5040 ft | 220 kts | 248° |
| 2026-05-07 23:20 | 36.06223 | -115.25697 | 5447 ft | 227 kts | 227° |
| 2026-05-07 23:20 | 36.04859 | -115.26856 | 5555 ft | 249 kts | 204° |
| 2026-05-07 23:21 | 36.03217 | -115.27610 | 6079 ft | 250 kts | 201° |
| 2026-05-07 23:21 | 36.01543 | -115.28348 | 6418 ft | 264 kts | 201° |
| 2026-05-07 23:21 | 35.99768 | -115.29154 | 6690 ft | 282 kts | 203° |
| 2026-05-07 23:21 | 35.97970 | -115.30203 | 7214 ft | 288 kts | 209° |
| 2026-05-07 23:22 | 35.96202 | -115.31364 | 7892 ft | 290 kts | 210° |
| 2026-05-07 23:22 | 35.94423 | -115.32539 | 8511 ft | 293 kts | 210° |
| 2026-05-07 23:22 | 35.92605 | -115.33732 | 9149 ft | 296 kts | 210° |
| 2026-05-07 23:22 | 35.90792 | -115.34968 | 9754 ft | 298 kts | 218° |
| 2026-05-07 23:23 | 35.89393 | -115.36771 | 10306 ft | 297 kts | 243° |
| 2026-05-07 23:23 | 35.88726 | -115.39138 | 10858 ft | 295 kts | 265° |
| 2026-05-07 23:23 | 35.88598 | -115.41692 | 11080 ft | 297 kts | 272° |
| 2026-05-07 23:23 | 35.88626 | -115.44246 | 11137 ft | 306 kts | 274° |
| 2026-05-07 23:24 | 35.88686 | -115.46962 | 11250 ft | 329 kts | 274° |
| 2026-05-07 23:24 | 35.88747 | -115.49864 | 11427 ft | 351 kts | 274° |
| 2026-05-07 23:24 | 35.88810 | -115.52959 | 11638 ft | 369 kts | 274° |
| 2026-05-07 23:24 | 35.88871 | -115.56126 | 12292 ft | 372 kts | 274° |
| 2026-05-07 23:25 | 35.88932 | -115.59314 | 13052 ft | 374 kts | 274° |
| 2026-05-07 23:25 | 35.88992 | -115.62505 | 13698 ft | 378 kts | 274° |
| 2026-05-07 23:25 | 35.89054 | -115.65773 | 14333 ft | 382 kts | 274° |
| 2026-05-07 23:25 | 35.89115 | -115.69070 | 14965 ft | 387 kts | 274° |
| 2026-05-07 23:26 | 35.89176 | -115.72385 | 15617 ft | 391 kts | 274° |
| 2026-05-07 23:26 | 35.89236 | -115.75742 | 16245 ft | 395 kts | 274° |
| 2026-05-07 23:26 | 35.89295 | -115.79115 | 16854 ft | 399 kts | 274° |
| 2026-05-07 23:26 | 35.89355 | -115.82579 | 17482 ft | 403 kts | 274° |
| 2026-05-07 23:27 | 35.89717 | -115.89453 | 18669 ft | 407 kts | 284° |
| 2026-05-07 23:27 | 35.90523 | -115.92801 | 19211 ft | 407 kts | 295° |
| 2026-05-07 23:27 | 35.91799 | -115.95895 | 19772 ft | 407 kts | 306° |
| 2026-05-07 23:28 | 35.93506 | -115.98656 | 20333 ft | 407 kts | 315° |
| 2026-05-07 23:28 | 35.95499 | -116.01183 | 20888 ft | 410 kts | 317° |
| 2026-05-07 23:28 | 35.97504 | -116.03661 | 21414 ft | 413 kts | 317° |
| 2026-05-07 23:28 | 35.99534 | -116.06167 | 21949 ft | 417 kts | 317° |
| 2026-05-07 23:29 | 36.01606 | -116.08727 | 22495 ft | 420 kts | 317° |
| 2026-05-07 23:29 | 36.03667 | -116.11276 | 22992 ft | 423 kts | 318° |
| 2026-05-07 23:29 | 36.05743 | -116.13846 | 23494 ft | 427 kts | 317° |
| 2026-05-07 23:29 | 36.07852 | -116.16458 | 24013 ft | 430 kts | 318° |
| 2026-05-07 23:30 | 36.09961 | -116.19071 | 24499 ft | 434 kts | 318° |
| 2026-05-07 23:30 | 36.12095 | -116.21718 | 25003 ft | 436 kts | 317° |
| 2026-05-07 23:30 | 36.14255 | -116.24400 | 25483 ft | 439 kts | 318° |
| 2026-05-07 23:30 | 36.16394 | -116.27058 | 25951 ft | 441 kts | 318° |
| 2026-05-07 23:31 | 36.18584 | -116.29781 | 26391 ft | 444 kts | 318° |
| 2026-05-07 23:31 | 36.20757 | -116.32483 | 26837 ft | 447 kts | 318° |
| 2026-05-07 23:31 | 36.22942 | -116.35205 | 27295 ft | 449 kts | 318° |
| 2026-05-07 23:31 | 36.25150 | -116.37959 | 27721 ft | 452 kts | 317° |
| 2026-05-07 23:32 | 36.27382 | -116.40743 | 28124 ft | 455 kts | 318° |
| 2026-05-07 23:32 | 36.29640 | -116.43529 | 28511 ft | 458 kts | 319° |
| 2026-05-07 23:32 | 36.31929 | -116.46244 | 28902 ft | 460 kts | 319° |
| 2026-05-07 23:32 | 36.34264 | -116.49007 | 29282 ft | 463 kts | 319° |
| 2026-05-07 23:33 | 36.36596 | -116.51774 | 29710 ft | 465 kts | 319° |
| 2026-05-07 23:33 | 36.38925 | -116.54541 | 30056 ft | 468 kts | 319° |
| 2026-05-07 23:33 | 36.41301 | -116.57368 | 30398 ft | 471 kts | 319° |
| 2026-05-07 23:33 | 36.43657 | -116.60176 | 30856 ft | 470 kts | 319° |
| 2026-05-07 23:34 | 36.46012 | -116.62947 | 31378 ft | 468 kts | 320° |
| 2026-05-07 23:34 | 36.48400 | -116.65653 | 31873 ft | 466 kts | 320° |
| 2026-05-07 23:34 | 36.50839 | -116.68408 | 32065 ft | 470 kts | 320° |
| 2026-05-07 23:34 | 36.53263 | -116.71152 | 32087 ft | 476 kts | 320° |
| 2026-05-07 23:35 | 36.58171 | -116.76729 | 32100 ft | 478 kts | 319° |
| 2026-05-07 23:35 | 36.63050 | -116.82290 | 32079 ft | 476 kts | 319° |
| 2026-05-07 23:36 | 36.67943 | -116.87878 | 32079 ft | 477 kts | 319° |
| 2026-05-07 23:36 | 36.72868 | -116.93389 | 32090 ft | 475 kts | 324° |
| 2026-05-07 23:37 | 36.78537 | -116.97589 | 32136 ft | 474 kts | 334° |
| 2026-05-07 23:37 | 36.84352 | -117.01355 | 32149 ft | 472 kts | 334° |
| 2026-05-07 23:38 | 36.90189 | -117.05140 | 32145 ft | 472 kts | 334° |
| 2026-05-07 23:38 | 36.95988 | -117.08907 | 32165 ft | 472 kts | 334° |
| 2026-05-07 23:39 | 37.01834 | -117.12714 | 32189 ft | 473 kts | 334° |
| 2026-05-07 23:39 | 37.07652 | -117.16506 | 32196 ft | 473 kts | 334° |
| 2026-05-07 23:40 | 37.13491 | -117.20322 | 32206 ft | 473 kts | 334° |
| 2026-05-07 23:40 | 37.19291 | -117.24118 | 32220 ft | 472 kts | 334° |
| 2026-05-07 23:41 | 37.25102 | -117.27927 | 32229 ft | 473 kts | 334° |
| 2026-05-07 23:41 | 37.30950 | -117.31765 | 32229 ft | 472 kts | 334° |
| 2026-05-07 23:42 | 37.36762 | -117.35522 | 32231 ft | 473 kts | 334° |
| 2026-05-07 23:42 | 37.42603 | -117.39301 | 32242 ft | 473 kts | 334° |
| 2026-05-07 23:43 | 37.48445 | -117.43088 | 32258 ft | 473 kts | 334° |
| 2026-05-07 23:43 | 37.54305 | -117.46896 | 32263 ft | 473 kts | 334° |
| 2026-05-07 23:44 | 37.60121 | -117.50682 | 32251 ft | 472 kts | 334° |
| 2026-05-07 23:44 | 37.65967 | -117.54495 | 32239 ft | 472 kts | 334° |
| 2026-05-07 23:45 | 37.71809 | -117.58312 | 32234 ft | 473 kts | 334° |
| 2026-05-07 23:45 | 37.77627 | -117.62120 | 32232 ft | 473 kts | 334° |
| 2026-05-07 23:46 | 37.83488 | -117.65964 | 32240 ft | 474 kts | 333° |
| 2026-05-07 23:46 | 37.89288 | -117.69775 | 32234 ft | 473 kts | 333° |
| 2026-05-07 23:47 | 37.95159 | -117.73640 | 32215 ft | 474 kts | 332° |
| 2026-05-07 23:47 | 38.00429 | -117.78564 | 32184 ft | 477 kts | 315° |
| 2026-05-07 23:48 | 38.04429 | -117.85299 | 32189 ft | 479 kts | 304° |
| 2026-05-07 23:48 | 38.08005 | -117.92394 | 32188 ft | 479 kts | 304° |
| 2026-05-07 23:49 | 38.11568 | -117.99505 | 32193 ft | 479 kts | 304° |
| 2026-05-07 23:49 | 38.15136 | -118.06650 | 32210 ft | 480 kts | 303° |
| 2026-05-07 23:50 | 38.18706 | -118.13821 | 32233 ft | 480 kts | 303° |
| 2026-05-07 23:50 | 38.22264 | -118.20982 | 32245 ft | 479 kts | 303° |
| 2026-05-07 23:51 | 38.25798 | -118.28116 | 32267 ft | 479 kts | 303° |
| 2026-05-07 23:51 | 38.29343 | -118.35287 | 32279 ft | 479 kts | 303° |
| 2026-05-07 23:52 | 38.32881 | -118.42459 | 32278 ft | 479 kts | 303° |
| 2026-05-07 23:52 | 38.36415 | -118.49638 | 32279 ft | 480 kts | 303° |
| 2026-05-07 23:53 | 38.39948 | -118.56831 | 32255 ft | 481 kts | 303° |
| 2026-05-07 23:53 | 38.43485 | -118.64051 | 32254 ft | 481 kts | 303° |
| 2026-05-07 23:54 | 38.47007 | -118.71257 | 32241 ft | 479 kts | 302° |
| 2026-05-07 23:54 | 38.50534 | -118.78487 | 32260 ft | 480 kts | 302° |
| 2026-05-07 23:55 | 38.54052 | -118.85714 | 32268 ft | 480 kts | 302° |
| 2026-05-07 23:55 | 38.57565 | -118.92948 | 32256 ft | 480 kts | 302° |
| 2026-05-07 23:56 | 38.61074 | -119.00191 | 32260 ft | 480 kts | 302° |
| 2026-05-07 23:56 | 38.64577 | -119.07438 | 32255 ft | 481 kts | 302° |
| 2026-05-07 23:57 | 38.68083 | -119.14706 | 32254 ft | 481 kts | 302° |
| 2026-05-07 23:57 | 38.71580 | -119.21973 | 32267 ft | 481 kts | 302° |
| 2026-05-07 23:58 | 38.75071 | -119.29243 | 32257 ft | 480 kts | 302° |
| 2026-05-07 23:58 | 38.78557 | -119.36519 | 32267 ft | 481 kts | 302° |
| 2026-05-07 23:59 | 38.82038 | -119.43802 | 32271 ft | 480 kts | 302° |
| 2026-05-07 23:59 | 38.85517 | -119.51098 | 32275 ft | 481 kts | 302° |
| 2026-05-08 00:00 | 38.89013 | -119.58445 | 32272 ft | 482 kts | 302° |
| 2026-05-08 00:00 | 38.92486 | -119.65762 | 32260 ft | 482 kts | 302° |
| 2026-05-08 00:01 | 38.95971 | -119.73119 | 32246 ft | 482 kts | 302° |
| 2026-05-08 00:01 | 38.99429 | -119.80437 | 32237 ft | 480 kts | 302° |
| 2026-05-08 00:02 | 39.02888 | -119.87775 | 32267 ft | 482 kts | 301° |
| 2026-05-08 00:02 | 39.06357 | -119.95149 | 32283 ft | 482 kts | 301° |
| 2026-05-08 00:03 | 39.09831 | -120.02554 | 32302 ft | 483 kts | 301° |
| 2026-05-08 00:03 | 39.13280 | -120.09921 | 32311 ft | 483 kts | 301° |
| 2026-05-08 00:04 | 39.16736 | -120.17320 | 32299 ft | 482 kts | 301° |
| 2026-05-08 00:04 | 39.20177 | -120.24704 | 32295 ft | 482 kts | 301° |
| 2026-05-08 00:05 | 39.23609 | -120.32090 | 32285 ft | 482 kts | 301° |
| 2026-05-08 00:05 | 39.27054 | -120.39516 | 32269 ft | 482 kts | 301° |
| 2026-05-08 00:06 | 39.30495 | -120.46950 | 32256 ft | 482 kts | 301° |
| 2026-05-08 00:06 | 39.33915 | -120.54359 | 32243 ft | 481 kts | 301° |
| 2026-05-08 00:07 | 39.37322 | -120.61756 | 32239 ft | 483 kts | 301° |
| 2026-05-08 00:07 | 39.40753 | -120.69224 | 32232 ft | 483 kts | 300° |
| 2026-05-08 00:08 | 39.44163 | -120.76662 | 32223 ft | 482 kts | 300° |
| 2026-05-08 00:08 | 39.47556 | -120.84083 | 32196 ft | 482 kts | 300° |
| 2026-05-08 00:09 | 39.50982 | -120.91594 | 32171 ft | 484 kts | 300° |
| 2026-05-08 00:09 | 39.54377 | -120.99053 | 32164 ft | 483 kts | 300° |
| 2026-05-08 00:10 | 39.57769 | -121.06522 | 32147 ft | 484 kts | 300° |
| 2026-05-08 00:10 | 39.61175 | -121.14043 | 32145 ft | 484 kts | 300° |
| 2026-05-08 00:11 | 39.64584 | -121.21587 | 32128 ft | 484 kts | 300° |
| 2026-05-08 00:11 | 39.67964 | -121.29085 | 32113 ft | 483 kts | 300° |
| 2026-05-08 00:12 | 39.71343 | -121.36598 | 32110 ft | 482 kts | 300° |
| 2026-05-08 00:12 | 39.74730 | -121.44147 | 32101 ft | 483 kts | 300° |
| 2026-05-08 00:13 | 39.78083 | -121.51641 | 32098 ft | 483 kts | 300° |
| 2026-05-08 00:13 | 39.81462 | -121.59211 | 32089 ft | 484 kts | 300° |
| 2026-05-08 00:14 | 39.84836 | -121.66785 | 32071 ft | 484 kts | 299° |
| 2026-05-08 00:14 | 39.88212 | -121.74387 | 32060 ft | 485 kts | 299° |
| 2026-05-08 00:15 | 39.91564 | -121.81949 | 32046 ft | 485 kts | 299° |
| 2026-05-08 00:15 | 39.94914 | -121.89528 | 32034 ft | 484 kts | 299° |
| 2026-05-08 00:16 | 39.98288 | -121.97178 | 32012 ft | 485 kts | 299° |
| 2026-05-08 00:16 | 40.01628 | -122.04771 | 31995 ft | 484 kts | 299° |
| 2026-05-08 00:17 | 40.04976 | -122.12400 | 32007 ft | 485 kts | 299° |
| 2026-05-08 00:17 | 40.08309 | -122.20015 | 32008 ft | 485 kts | 299° |
| 2026-05-08 00:18 | 40.11501 | -122.27743 | 32009 ft | 484 kts | 297° |
| 2026-05-08 00:18 | 40.14547 | -122.35520 | 32018 ft | 484 kts | 297° |
| 2026-05-08 00:19 | 40.17600 | -122.43336 | 32025 ft | 484 kts | 297° |
| 2026-05-08 00:19 | 40.20646 | -122.51153 | 32036 ft | 483 kts | 297° |
| 2026-05-08 00:20 | 40.23682 | -122.58967 | 32054 ft | 484 kts | 297° |
| 2026-05-08 00:20 | 40.26724 | -122.66821 | 32070 ft | 484 kts | 296° |
| 2026-05-08 00:21 | 40.29755 | -122.74662 | 32104 ft | 483 kts | 296° |
| 2026-05-08 00:21 | 40.32781 | -122.82513 | 32130 ft | 483 kts | 296° |
| 2026-05-08 00:22 | 40.35790 | -122.90340 | 32182 ft | 484 kts | 296° |
| 2026-05-08 00:22 | 40.38805 | -122.98204 | 32206 ft | 484 kts | 296° |
| 2026-05-08 00:23 | 40.41813 | -123.06069 | 32214 ft | 483 kts | 296° |
| 2026-05-08 00:23 | 40.44819 | -123.13951 | 32203 ft | 482 kts | 296° |
| 2026-05-08 00:24 | 40.47809 | -123.21812 | 32190 ft | 483 kts | 296° |
| 2026-05-08 00:24 | 40.50796 | -123.29689 | 32187 ft | 483 kts | 296° |
| 2026-05-08 00:25 | 40.53764 | -123.37532 | 32204 ft | 482 kts | 296° |
| 2026-05-08 00:25 | 40.56759 | -123.45469 | 32218 ft | 482 kts | 296° |
| 2026-05-08 00:26 | 40.59716 | -123.53327 | 32232 ft | 481 kts | 296° |
| 2026-05-08 00:26 | 40.62664 | -123.61183 | 32214 ft | 481 kts | 296° |
| 2026-05-08 00:27 | 40.65622 | -123.69089 | 32202 ft | 482 kts | 296° |
| 2026-05-08 00:27 | 40.68580 | -123.77012 | 32192 ft | 481 kts | 296° |
| 2026-05-08 00:28 | 40.71499 | -123.84854 | 32163 ft | 481 kts | 296° |
| 2026-05-08 00:28 | 40.74445 | -123.92791 | 32120 ft | 481 kts | 296° |
| 2026-05-08 00:29 | 40.77373 | -124.00697 | 32090 ft | 479 kts | 296° |
| 2026-05-08 00:29 | 40.80276 | -124.08560 | 32089 ft | 480 kts | 296° |
| 2026-05-08 00:30 | 40.83184 | -124.16457 | 32103 ft | 478 kts | 296° |
| 2026-05-08 00:30 | 40.86093 | -124.24380 | 32106 ft | 479 kts | 296° |
| 2026-05-08 00:31 | 40.88972 | -124.32240 | 32109 ft | 479 kts | 296° |
| 2026-05-08 00:31 | 40.91860 | -124.40150 | 32102 ft | 479 kts | 296° |
| 2026-05-08 00:32 | 40.94751 | -124.48086 | 32108 ft | 479 kts | 296° |
| 2026-05-08 00:32 | 40.97622 | -124.55993 | 32102 ft | 478 kts | 296° |
| 2026-05-08 00:33 | 41.00489 | -124.63908 | 32109 ft | 477 kts | 296° |
| 2026-05-08 00:33 | 41.03335 | -124.71787 | 32110 ft | 478 kts | 296° |
| 2026-05-08 00:34 | 41.06185 | -124.79699 | 32123 ft | 476 kts | 296° |
| 2026-05-08 00:34 | 41.09029 | -124.87614 | 32124 ft | 476 kts | 296° |
| 2026-05-08 00:35 | 41.11868 | -124.95540 | 32141 ft | 476 kts | 296° |
| 2026-05-08 00:35 | 41.14692 | -125.03445 | 32149 ft | 475 kts | 296° |
| 2026-05-08 00:36 | 41.17504 | -125.11339 | 32152 ft | 475 kts | 296° |
| 2026-05-08 00:36 | 41.20306 | -125.19228 | 32144 ft | 474 kts | 296° |
| 2026-05-08 00:37 | 41.23119 | -125.27165 | 32147 ft | 476 kts | 296° |
| 2026-05-08 00:38 | 41.27317 | -125.39059 | 32142 ft | 474 kts | 296° |
| 2026-05-08 00:38 | 41.30093 | -125.46949 | 32142 ft | 474 kts | 296° |
| 2026-05-08 00:39 | 41.32883 | -125.54902 | 32141 ft | 473 kts | 296° |
| 2026-05-08 00:39 | 41.35638 | -125.62778 | 32144 ft | 474 kts | 296° |
| 2026-05-08 00:40 | 41.38404 | -125.70705 | 32149 ft | 473 kts | 295° |
| 2026-05-08 00:40 | 41.41166 | -125.78650 | 32150 ft | 472 kts | 295° |
| 2026-05-08 00:41 | 41.43914 | -125.86574 | 32150 ft | 473 kts | 295° |
| 2026-05-08 00:41 | 41.46663 | -125.94518 | 32152 ft | 472 kts | 295° |
| 2026-05-08 00:42 | 41.49402 | -126.02458 | 32152 ft | 472 kts | 295° |
| 2026-05-08 00:42 | 41.52137 | -126.10408 | 32152 ft | 472 kts | 295° |
| 2026-05-08 00:43 | 41.54853 | -126.18327 | 32152 ft | 472 kts | 294° |
| 2026-05-08 00:43 | 41.57572 | -126.26279 | 32154 ft | 472 kts | 294° |
| 2026-05-08 00:44 | 41.60302 | -126.34283 | 32155 ft | 473 kts | 294° |
| 2026-05-08 00:44 | 41.63003 | -126.42226 | 32160 ft | 472 kts | 294° |
| 2026-05-08 00:45 | 41.65966 | -126.50020 | 32159 ft | 473 kts | 304° |
| 2026-05-08 00:45 | 41.70320 | -126.56593 | 32164 ft | 475 kts | 314° |
| 2026-05-08 00:46 | 41.75012 | -126.62815 | 32159 ft | 474 kts | 314° |
| 2026-05-08 00:46 | 41.79645 | -126.69025 | 32163 ft | 474 kts | 313° |
| 2026-05-08 00:47 | 41.84278 | -126.75281 | 32170 ft | 474 kts | 313° |
| 2026-05-08 00:47 | 41.88761 | -126.81770 | 32161 ft | 473 kts | 304° |
| 2026-05-08 00:48 | 41.91982 | -126.89399 | 32172 ft | 471 kts | 295° |
| 2026-05-08 00:48 | 41.94859 | -126.97217 | 32173 ft | 471 kts | 295° |
| 2026-05-08 00:49 | 41.97762 | -127.05145 | 32171 ft | 473 kts | 295° |
| 2026-05-08 00:49 | 42.00637 | -127.13018 | 32170 ft | 472 kts | 295° |
| 2026-05-08 00:50 | 42.03508 | -127.20907 | 32173 ft | 472 kts | 295° |
| 2026-05-08 00:50 | 42.06372 | -127.28796 | 32170 ft | 471 kts | 295° |
| 2026-05-08 00:51 | 42.09243 | -127.36729 | 32169 ft | 470 kts | 295° |
| 2026-05-08 00:51 | 42.12094 | -127.44633 | 32170 ft | 472 kts | 295° |
| 2026-05-08 00:52 | 42.14926 | -127.52507 | 32170 ft | 471 kts | 294° |
| 2026-05-08 00:52 | 42.17771 | -127.60434 | 32172 ft | 471 kts | 294° |
| 2026-05-08 00:53 | 42.20609 | -127.68366 | 32173 ft | 471 kts | 294° |
| 2026-05-08 00:53 | 42.23452 | -127.76334 | 32173 ft | 472 kts | 294° |
| 2026-05-08 00:54 | 42.26275 | -127.84268 | 32174 ft | 471 kts | 293° |
| 2026-05-08 00:54 | 42.29087 | -127.92197 | 32170 ft | 470 kts | 293° |
| 2026-05-08 00:55 | 42.31901 | -128.00151 | 32174 ft | 471 kts | 293° |
| 2026-05-08 00:55 | 42.34720 | -128.08142 | 32171 ft | 472 kts | 293° |
| 2026-05-08 00:56 | 42.37524 | -128.16113 | 32172 ft | 471 kts | 293° |
| 2026-05-08 00:56 | 42.40326 | -128.24104 | 32171 ft | 470 kts | 293° |
| 2026-05-08 00:57 | 42.43123 | -128.32101 | 32167 ft | 470 kts | 293° |
| 2026-05-08 00:57 | 42.45901 | -128.40068 | 32167 ft | 471 kts | 293° |
| 2026-05-08 00:58 | 42.48677 | -128.48053 | 32163 ft | 471 kts | 292° |
| 2026-05-08 00:58 | 42.51470 | -128.56107 | 32163 ft | 470 kts | 292° |
| 2026-05-08 00:59 | 42.54236 | -128.64107 | 32166 ft | 470 kts | 292° |
| 2026-05-08 00:59 | 42.57004 | -128.72139 | 32167 ft | 470 kts | 291° |
| 2026-05-08 01:00 | 42.59757 | -128.80148 | 32165 ft | 470 kts | 291° |
| 2026-05-08 01:00 | 42.62501 | -128.88156 | 32164 ft | 471 kts | 291° |
| 2026-05-08 01:01 | 42.65252 | -128.96205 | 32158 ft | 471 kts | 291° |
| 2026-05-08 01:01 | 42.68005 | -129.04289 | 32152 ft | 472 kts | 291° |
| 2026-05-08 01:02 | 42.70736 | -129.12326 | 32152 ft | 471 kts | 291° |
| 2026-05-08 01:02 | 42.73477 | -129.20419 | 32154 ft | 471 kts | 291° |
| 2026-05-08 01:03 | 42.76198 | -129.28477 | 32149 ft | 471 kts | 291° |
| 2026-05-08 01:03 | 42.78918 | -129.36554 | 32151 ft | 471 kts | 291° |
| 2026-05-08 01:04 | 42.81629 | -129.44632 | 32146 ft | 470 kts | 291° |
| 2026-05-08 01:04 | 42.84345 | -129.52748 | 32150 ft | 473 kts | 290° |
| 2026-05-08 01:05 | 42.87042 | -129.60832 | 32150 ft | 471 kts | 291° |
| 2026-05-08 01:05 | 42.89751 | -129.68974 | 32156 ft | 471 kts | 290° |
| 2026-05-08 01:06 | 42.92442 | -129.77084 | 32154 ft | 471 kts | 290° |
| 2026-05-08 01:06 | 42.95142 | -129.85251 | 32155 ft | 473 kts | 289° |
| 2026-05-08 01:07 | 42.97821 | -129.93375 | 32156 ft | 472 kts | 289° |
| 2026-05-08 01:07 | 43.00985 | -130.01265 | 32155 ft | 481 kts | 302° |
| 2026-05-08 01:08 | 43.05558 | -130.08014 | 32157 ft | 488 kts | 309° |
| 2026-05-08 01:08 | 43.10307 | -130.14581 | 32151 ft | 487 kts | 309° |
| 2026-05-08 01:09 | 43.15037 | -130.21187 | 32138 ft | 488 kts | 309° |
| 2026-05-08 01:09 | 43.19782 | -130.27853 | 32133 ft | 488 kts | 309° |
| 2026-05-08 01:10 | 43.24507 | -130.34521 | 32132 ft | 487 kts | 309° |
| 2026-05-08 01:10 | 43.29205 | -130.41176 | 32126 ft | 490 kts | 308° |
| 2026-05-08 01:11 | 43.33945 | -130.47908 | 32123 ft | 489 kts | 308° |
| 2026-05-08 01:11 | 43.38662 | -130.54627 | 32128 ft | 489 kts | 308° |
| 2026-05-08 01:12 | 43.43360 | -130.61334 | 32119 ft | 489 kts | 308° |
| 2026-05-08 01:12 | 43.48067 | -130.68074 | 32123 ft | 490 kts | 307° |
| 2026-05-08 01:13 | 43.52781 | -130.74838 | 32125 ft | 490 kts | 307° |
| 2026-05-08 01:13 | 43.57487 | -130.81610 | 32121 ft | 491 kts | 307° |
| 2026-05-08 01:14 | 43.62184 | -130.88385 | 32116 ft | 494 kts | 307° |
| 2026-05-08 01:14 | 43.66942 | -130.95261 | 32115 ft | 492 kts | 307° |
| 2026-05-08 01:15 | 43.71648 | -131.02081 | 32116 ft | 494 kts | 307° |
| 2026-05-08 01:15 | 43.76364 | -131.08933 | 32114 ft | 493 kts | 307° |
| 2026-05-08 01:16 | 43.81072 | -131.15788 | 32112 ft | 494 kts | 307° |
| 2026-05-08 01:16 | 43.85806 | -131.22699 | 32105 ft | 495 kts | 307° |
| 2026-05-08 01:17 | 43.90506 | -131.29578 | 32101 ft | 495 kts | 307° |
| 2026-05-08 01:17 | 43.95252 | -131.36542 | 32107 ft | 497 kts | 307° |
| 2026-05-08 01:18 | 43.99971 | -131.43481 | 32098 ft | 496 kts | 307° |
| 2026-05-08 01:18 | 44.04713 | -131.50472 | 32099 ft | 496 kts | 307° |
| 2026-05-08 01:19 | 44.09414 | -131.57422 | 32094 ft | 498 kts | 307° |
| 2026-05-08 01:19 | 44.14177 | -131.64478 | 32078 ft | 500 kts | 307° |
| 2026-05-08 01:20 | 44.18872 | -131.71451 | 32081 ft | 499 kts | 306° |
| 2026-05-08 01:20 | 44.23614 | -131.78514 | 32078 ft | 499 kts | 306° |
| 2026-05-08 01:21 | 44.28348 | -131.85584 | 32074 ft | 500 kts | 306° |
| 2026-05-08 01:21 | 44.33053 | -131.92624 | 32072 ft | 498 kts | 306° |
| 2026-05-08 01:22 | 44.37806 | -131.99757 | 32070 ft | 502 kts | 306° |
| 2026-05-08 01:22 | 44.42513 | -132.06838 | 32065 ft | 499 kts | 306° |
| 2026-05-08 01:23 | 44.47231 | -132.13954 | 32068 ft | 502 kts | 306° |
| 2026-05-08 01:23 | 44.51992 | -132.21155 | 32060 ft | 502 kts | 306° |
| 2026-05-08 01:24 | 44.56690 | -132.28276 | 32062 ft | 503 kts | 306° |
| 2026-05-08 01:24 | 44.61427 | -132.35477 | 32058 ft | 504 kts | 306° |
| 2026-05-08 01:25 | 44.66179 | -132.42717 | 32051 ft | 505 kts | 305° |
| 2026-05-08 01:25 | 44.70911 | -132.49945 | 32056 ft | 504 kts | 305° |
| 2026-05-08 01:26 | 44.75661 | -132.57222 | 32049 ft | 506 kts | 305° |
| 2026-05-08 01:26 | 44.80388 | -132.64482 | 32050 ft | 506 kts | 305° |
| 2026-05-08 01:27 | 44.85147 | -132.71808 | 32050 ft | 506 kts | 304° |
| 2026-05-08 01:27 | 44.89897 | -132.79144 | 32044 ft | 508 kts | 304° |
| 2026-05-08 01:28 | 44.94643 | -132.86490 | 32045 ft | 510 kts | 304° |
| 2026-05-08 01:28 | 44.99381 | -132.93845 | 32045 ft | 508 kts | 304° |
| 2026-05-08 01:29 | 45.04178 | -133.01312 | 32040 ft | 512 kts | 304° |
| 2026-05-08 01:29 | 45.08912 | -133.08697 | 32038 ft | 512 kts | 304° |
| 2026-05-08 01:30 | 45.13672 | -133.16144 | 32019 ft | 511 kts | 304° |
| 2026-05-08 01:30 | 45.18443 | -133.23630 | 32011 ft | 513 kts | 304° |
| 2026-05-08 01:31 | 45.23198 | -133.31108 | 32021 ft | 513 kts | 304° |
| 2026-05-08 01:31 | 45.27984 | -133.38658 | 32009 ft | 515 kts | 304° |
| 2026-05-08 01:32 | 45.32759 | -133.46210 | 32006 ft | 516 kts | 304° |
| 2026-05-08 01:32 | 45.37514 | -133.53752 | 31998 ft | 518 kts | 303° |
| 2026-05-08 01:33 | 45.42332 | -133.61414 | 31991 ft | 516 kts | 304° |
| 2026-05-08 01:33 | 45.47118 | -133.69046 | 32001 ft | 517 kts | 303° |
| 2026-05-08 01:34 | 45.51884 | -133.76668 | 32005 ft | 520 kts | 303° |
| 2026-05-08 01:34 | 45.56685 | -133.84369 | 31992 ft | 521 kts | 303° |
| 2026-05-08 01:35 | 45.61473 | -133.92065 | 31986 ft | 521 kts | 303° |
| 2026-05-08 01:35 | 45.66270 | -133.99802 | 31984 ft | 522 kts | 303° |
| 2026-05-08 01:36 | 45.71071 | -134.07564 | 31977 ft | 523 kts | 303° |
| 2026-05-08 01:36 | 45.75866 | -134.15338 | 31982 ft | 521 kts | 303° |
| 2026-05-08 01:37 | 45.80639 | -134.23103 | 31980 ft | 523 kts | 303° |
| 2026-05-08 01:37 | 45.85435 | -134.30924 | 31976 ft | 526 kts | 303° |
| 2026-05-08 01:38 | 45.90258 | -134.38811 | 31967 ft | 525 kts | 303° |
| 2026-05-08 01:38 | 45.95052 | -134.46675 | 31965 ft | 527 kts | 303° |
| 2026-05-08 01:39 | 45.99858 | -134.54579 | 31964 ft | 527 kts | 303° |
| 2026-05-08 01:39 | 46.04667 | -134.62512 | 31961 ft | 527 kts | 303° |
| 2026-05-08 01:40 | 46.09451 | -134.70424 | 31962 ft | 527 kts | 302° |
| 2026-05-08 01:40 | 46.14245 | -134.78375 | 31943 ft | 526 kts | 302° |
| 2026-05-08 01:41 | 46.19014 | -134.86313 | 31938 ft | 528 kts | 302° |
| 2026-05-08 01:41 | 46.23816 | -134.94328 | 31926 ft | 529 kts | 302° |
| 2026-05-08 01:42 | 46.28592 | -135.02316 | 31930 ft | 525 kts | 302° |
| 2026-05-08 01:42 | 46.33382 | -135.10361 | 31922 ft | 529 kts | 302° |
| 2026-05-08 01:43 | 46.38160 | -135.18402 | 31917 ft | 529 kts | 302° |
| 2026-05-08 01:43 | 46.42900 | -135.26404 | 31919 ft | 529 kts | 302° |
| 2026-05-08 01:44 | 46.47715 | -135.34558 | 31909 ft | 527 kts | 302° |
| 2026-05-08 01:44 | 46.52472 | -135.42636 | 31902 ft | 529 kts | 302° |
| 2026-05-08 01:45 | 46.57221 | -135.50729 | 31909 ft | 530 kts | 303° |
| 2026-05-08 01:45 | 46.61990 | -135.58876 | 31904 ft | 532 kts | 302° |
| 2026-05-08 01:46 | 46.66719 | -135.66975 | 31897 ft | 528 kts | 302° |
| 2026-05-08 01:46 | 46.71454 | -135.75111 | 31903 ft | 527 kts | 302° |
| 2026-05-08 01:47 | 46.76201 | -135.83298 | 31901 ft | 530 kts | 302° |
| 2026-05-08 01:47 | 46.80902 | -135.91420 | 31881 ft | 526 kts | 302° |
| 2026-05-08 01:48 | 46.87973 | -136.03694 | 31894 ft | 530 kts | 302° |
| 2026-05-08 01:48 | 46.92698 | -136.11922 | 31879 ft | 528 kts | 302° |
| 2026-05-08 01:49 | 46.97398 | -136.20136 | 31878 ft | 531 kts | 302° |
| 2026-05-08 01:49 | 47.02092 | -136.28358 | 31878 ft | 526 kts | 302° |
| 2026-05-08 01:50 | 47.06778 | -136.36597 | 31879 ft | 530 kts | 302° |
| 2026-05-08 01:50 | 47.11465 | -136.44856 | 31851 ft | 526 kts | 302° |
| 2026-05-08 01:51 | 47.16136 | -136.53117 | 31835 ft | 526 kts | 303° |
| 2026-05-08 01:51 | 47.20752 | -136.61304 | 31832 ft | 524 kts | 303° |
| 2026-05-08 01:52 | 47.25418 | -136.69606 | 31835 ft | 525 kts | 302° |
| 2026-05-08 01:52 | 47.30033 | -136.77840 | 31833 ft | 525 kts | 302° |
| 2026-05-08 01:53 | 47.34654 | -136.86110 | 31833 ft | 524 kts | 302° |
| 2026-05-08 01:53 | 47.39280 | -136.94415 | 31824 ft | 523 kts | 302° |
| 2026-05-08 01:54 | 47.43908 | -137.02748 | 31823 ft | 524 kts | 303° |
| 2026-05-08 01:54 | 47.48508 | -137.11060 | 31828 ft | 526 kts | 303° |
| 2026-05-08 01:55 | 47.53086 | -137.19351 | 31825 ft | 522 kts | 303° |
| 2026-05-08 01:55 | 47.57659 | -137.27663 | 31824 ft | 524 kts | 303° |
| 2026-05-08 01:56 | 47.62218 | -137.35973 | 31815 ft | 523 kts | 303° |
| 2026-05-08 01:56 | 47.66799 | -137.44350 | 31814 ft | 522 kts | 303° |
| 2026-05-08 01:57 | 47.71352 | -137.52699 | 31812 ft | 522 kts | 303° |
| 2026-05-08 01:57 | 47.75889 | -137.61046 | 31808 ft | 522 kts | 303° |
| 2026-05-08 01:58 | 47.80428 | -137.69423 | 31804 ft | 522 kts | 303° |
| 2026-05-08 01:58 | 47.84968 | -137.77826 | 31803 ft | 520 kts | 303° |
| 2026-05-08 01:59 | 47.89489 | -137.86224 | 31793 ft | 522 kts | 303° |
| 2026-05-08 01:59 | 47.93980 | -137.94588 | 31790 ft | 521 kts | 303° |
| 2026-05-08 02:00 | 47.98475 | -138.02986 | 31788 ft | 520 kts | 303° |
| 2026-05-08 02:00 | 48.02972 | -138.11418 | 31793 ft | 521 kts | 303° |
| 2026-05-08 02:01 | 48.07475 | -138.19887 | 31778 ft | 521 kts | 303° |
| 2026-05-08 02:01 | 48.11950 | -138.28326 | 31765 ft | 521 kts | 303° |
| 2026-05-08 02:02 | 48.16444 | -138.36829 | 31762 ft | 521 kts | 303° |
| 2026-05-08 02:02 | 48.20900 | -138.45282 | 31761 ft | 521 kts | 304° |
| 2026-05-08 02:03 | 48.25375 | -138.53799 | 31757 ft | 520 kts | 304° |
| 2026-05-08 02:03 | 48.29819 | -138.62288 | 31757 ft | 521 kts | 304° |
| 2026-05-08 02:04 | 48.34262 | -138.70801 | 31752 ft | 519 kts | 303° |
| 2026-05-08 02:04 | 48.38696 | -138.79323 | 31745 ft | 519 kts | 303° |
| 2026-05-08 02:05 | 48.43136 | -138.87883 | 31736 ft | 521 kts | 303° |
| 2026-05-08 02:05 | 48.47582 | -138.96483 | 31723 ft | 519 kts | 303° |
| 2026-05-08 02:06 | 48.52009 | -139.05074 | 31721 ft | 519 kts | 303° |
| 2026-05-08 02:06 | 48.56425 | -139.13669 | 31734 ft | 520 kts | 303° |
| 2026-05-08 02:07 | 48.60811 | -139.22234 | 31737 ft | 521 kts | 304° |
| 2026-05-08 02:07 | 48.65248 | -139.30928 | 31729 ft | 521 kts | 304° |
| 2026-05-08 02:08 | 48.69637 | -139.39554 | 31729 ft | 521 kts | 304° |
| 2026-05-08 02:08 | 48.74049 | -139.48254 | 31738 ft | 523 kts | 304° |
| 2026-05-08 02:09 | 48.78427 | -139.56915 | 31736 ft | 521 kts | 304° |
| 2026-05-08 02:09 | 48.82821 | -139.65634 | 31732 ft | 521 kts | 303° |
| 2026-05-08 02:10 | 48.87204 | -139.74359 | 31722 ft | 520 kts | 303° |
| 2026-05-08 02:10 | 48.91551 | -139.83044 | 31716 ft | 521 kts | 303° |
| 2026-05-08 02:11 | 48.95916 | -139.91792 | 31708 ft | 521 kts | 303° |
| 2026-05-08 02:11 | 49.00252 | -140.00560 | 31707 ft | 520 kts | 303° |
| 2026-05-08 02:12 | 49.04542 | -140.09473 | 32301 ft | 524 kts | 303° |
| 2026-05-08 02:12 | 49.06672 | -140.13911 | 32950 ft | 517 kts | 302° |
| 2026-05-08 02:12 | 49.08779 | -140.18309 | 33451 ft | 513 kts | 302° |
| 2026-05-08 02:13 | 49.10886 | -140.22722 | 33665 ft | 517 kts | 302° |
| 2026-05-08 02:13 | 49.12987 | -140.27130 | 33693 ft | 519 kts | 302° |
| 2026-05-08 02:13 | 49.17201 | -140.35988 | 33691 ft | 517 kts | 302° |
| 2026-05-08 02:14 | 49.21438 | -140.44925 | 33679 ft | 518 kts | 303° |
| 2026-05-08 02:14 | 49.25624 | -140.53783 | 33680 ft | 518 kts | 303° |
| 2026-05-08 02:15 | 49.29818 | -140.62691 | 33674 ft | 518 kts | 303° |
| 2026-05-08 02:15 | 49.34020 | -140.71642 | 33682 ft | 517 kts | 302° |
| 2026-05-08 02:16 | 49.38180 | -140.80537 | 33679 ft | 517 kts | 302° |
| 2026-05-08 02:16 | 49.42353 | -140.89488 | 33671 ft | 517 kts | 302° |
| 2026-05-08 02:17 | 49.46512 | -140.98441 | 33678 ft | 518 kts | 302° |
| 2026-05-08 02:17 | 49.50703 | -141.07491 | 33676 ft | 519 kts | 302° |
| 2026-05-08 02:18 | 49.54855 | -141.16489 | 33677 ft | 520 kts | 302° |
| 2026-05-08 02:18 | 49.59034 | -141.25574 | 33677 ft | 520 kts | 302° |
| 2026-05-08 02:19 | 49.63204 | -141.34668 | 33675 ft | 520 kts | 302° |
| 2026-05-08 02:19 | 49.67338 | -141.43720 | 33672 ft | 520 kts | 302° |
| 2026-05-08 02:20 | 49.71510 | -141.52887 | 33669 ft | 521 kts | 303° |
| 2026-05-08 02:20 | 49.75647 | -141.62006 | 33660 ft | 521 kts | 303° |
| 2026-05-08 02:21 | 49.79794 | -141.71178 | 33659 ft | 522 kts | 302° |
| 2026-05-08 02:21 | 49.83949 | -141.80399 | 33658 ft | 523 kts | 302° |
| 2026-05-08 02:22 | 49.88058 | -141.89552 | 33670 ft | 523 kts | 302° |
| 2026-05-08 02:22 | 49.92175 | -141.98753 | 33659 ft | 523 kts | 302° |
| 2026-05-08 02:23 | 49.96316 | -142.08040 | 33660 ft | 523 kts | 302° |
| 2026-05-08 02:23 | 50.00417 | -142.17271 | 33648 ft | 525 kts | 302° |
| 2026-05-08 02:24 | 50.04567 | -142.26643 | 33655 ft | 527 kts | 303° |
| 2026-05-08 02:24 | 50.08677 | -142.35960 | 33658 ft | 526 kts | 303° |
| 2026-05-08 02:25 | 50.12799 | -142.45337 | 33637 ft | 527 kts | 303° |
| 2026-05-08 02:25 | 50.16935 | -142.54778 | 33644 ft | 527 kts | 303° |
| 2026-05-08 02:26 | 50.21053 | -142.64214 | 33636 ft | 528 kts | 303° |
| 2026-05-08 02:26 | 50.25152 | -142.73634 | 33636 ft | 529 kts | 302° |
| 2026-05-08 02:27 | 50.29284 | -142.83171 | 33634 ft | 531 kts | 302° |
| 2026-05-08 02:27 | 50.33378 | -142.92653 | 33634 ft | 531 kts | 302° |
| 2026-05-08 02:28 | 50.37518 | -143.02277 | 33624 ft | 532 kts | 302° |
| 2026-05-08 02:28 | 50.41610 | -143.11819 | 33633 ft | 531 kts | 302° |
| 2026-05-08 02:29 | 50.45705 | -143.21408 | 33646 ft | 529 kts | 302° |
| 2026-05-08 02:29 | 50.49796 | -143.31021 | 33645 ft | 531 kts | 303° |
| 2026-05-08 02:30 | 50.53876 | -143.40645 | 33653 ft | 532 kts | 303° |
| 2026-05-08 02:30 | 50.57938 | -143.50259 | 33638 ft | 531 kts | 303° |
| 2026-05-08 02:31 | 50.61980 | -143.59862 | 33635 ft | 530 kts | 303° |
| 2026-05-08 02:31 | 50.66035 | -143.69531 | 33620 ft | 531 kts | 302° |
| 2026-05-08 02:32 | 50.70078 | -143.79208 | 33643 ft | 530 kts | 302° |
| 2026-05-08 02:32 | 50.74121 | -143.88921 | 33647 ft | 530 kts | 302° |
| 2026-05-08 02:33 | 50.78159 | -143.98659 | 33650 ft | 533 kts | 302° |
| 2026-05-08 02:33 | 50.82204 | -144.08450 | 33649 ft | 534 kts | 302° |
| 2026-05-08 02:34 | 50.86221 | -144.18208 | 33654 ft | 532 kts | 302° |
| 2026-05-08 02:34 | 50.90253 | -144.28041 | 33656 ft | 534 kts | 302° |
| 2026-05-08 02:35 | 50.94250 | -144.37825 | 33646 ft | 533 kts | 303° |
| 2026-05-08 02:35 | 50.98260 | -144.47679 | 33652 ft | 532 kts | 303° |
| 2026-05-08 02:36 | 51.02251 | -144.57521 | 33649 ft | 531 kts | 303° |
| 2026-05-08 02:36 | 51.06232 | -144.67378 | 33647 ft | 532 kts | 302° |
| 2026-05-08 02:37 | 51.10208 | -144.77260 | 33649 ft | 531 kts | 302° |
| 2026-05-08 02:37 | 51.14162 | -144.87120 | 33648 ft | 532 kts | 302° |
| 2026-05-08 02:38 | 51.18119 | -144.97031 | 33644 ft | 532 kts | 302° |
| 2026-05-08 02:38 | 51.22041 | -145.06891 | 33648 ft | 528 kts | 302° |
| 2026-05-08 02:39 | 51.25940 | -145.16733 | 33649 ft | 528 kts | 302° |
| 2026-05-08 02:39 | 51.29852 | -145.26642 | 33654 ft | 527 kts | 302° |
| 2026-05-08 02:40 | 51.33706 | -145.36446 | 33662 ft | 527 kts | 303° |
| 2026-05-08 02:40 | 51.37590 | -145.46359 | 33665 ft | 526 kts | 303° |
| 2026-05-08 02:41 | 51.41436 | -145.56215 | 33656 ft | 525 kts | 302° |
| 2026-05-08 02:41 | 51.45272 | -145.66081 | 33661 ft | 522 kts | 302° |
| 2026-05-08 02:42 | 51.49072 | -145.75893 | 33664 ft | 520 kts | 302° |
| 2026-05-08 02:42 | 51.52870 | -145.85739 | 33667 ft | 521 kts | 302° |
| 2026-05-08 02:43 | 51.56665 | -145.95615 | 33666 ft | 521 kts | 302° |
| 2026-05-08 02:43 | 51.60439 | -146.05475 | 33681 ft | 519 kts | 302° |
| 2026-05-08 02:44 | 51.64169 | -146.15253 | 33678 ft | 516 kts | 302° |
| 2026-05-08 02:44 | 51.67894 | -146.25060 | 33687 ft | 514 kts | 302° |
| 2026-05-08 02:45 | 51.71599 | -146.34848 | 33685 ft | 513 kts | 303° |
| 2026-05-08 02:45 | 51.75287 | -146.44630 | 33690 ft | 512 kts | 303° |
| 2026-05-08 02:46 | 51.78952 | -146.54388 | 33692 ft | 511 kts | 303° |
| 2026-05-08 02:46 | 51.82617 | -146.64186 | 33682 ft | 509 kts | 303° |
| 2026-05-08 02:47 | 51.86251 | -146.73936 | 33684 ft | 509 kts | 302° |
| 2026-05-08 02:47 | 51.89873 | -146.83691 | 33686 ft | 508 kts | 302° |
| 2026-05-08 02:48 | 51.93492 | -146.93477 | 33690 ft | 509 kts | 302° |
| 2026-05-08 02:48 | 51.97104 | -147.03282 | 33693 ft | 506 kts | 302° |
| 2026-05-08 02:49 | 52.00681 | -147.13029 | 33685 ft | 505 kts | 302° |
| 2026-05-08 02:49 | 52.04247 | -147.22780 | 33686 ft | 505 kts | 302° |
| 2026-05-08 02:50 | 52.07828 | -147.32616 | 33682 ft | 505 kts | 302° |
| 2026-05-08 02:50 | 52.11375 | -147.42394 | 33681 ft | 505 kts | 302° |
| 2026-05-08 02:51 | 52.14922 | -147.52210 | 33689 ft | 505 kts | 302° |
| 2026-05-08 02:51 | 52.18451 | -147.62013 | 33688 ft | 506 kts | 302° |
| 2026-05-08 02:52 | 52.21983 | -147.71864 | 33680 ft | 505 kts | 302° |
| 2026-05-08 02:52 | 52.25494 | -147.81697 | 33691 ft | 504 kts | 301° |
| 2026-05-08 02:53 | 52.29010 | -147.91580 | 33690 ft | 504 kts | 301° |
| 2026-05-08 02:53 | 52.32530 | -148.01512 | 33692 ft | 505 kts | 301° |
| 2026-05-08 02:54 | 52.36002 | -148.11350 | 33692 ft | 505 kts | 301° |
| 2026-05-08 02:54 | 52.39502 | -148.21304 | 33679 ft | 505 kts | 301° |
| 2026-05-08 02:55 | 52.44721 | -148.36224 | 33689 ft | 505 kts | 301° |
| 2026-05-08 02:56 | 52.48199 | -148.46216 | 33691 ft | 507 kts | 301° |
| 2026-05-08 02:56 | 52.51677 | -148.56250 | 33700 ft | 507 kts | 301° |
| 2026-05-08 02:57 | 52.55139 | -148.66275 | 33699 ft | 509 kts | 300° |
| 2026-05-08 02:57 | 52.58603 | -148.76347 | 33707 ft | 510 kts | 300° |
| 2026-05-08 02:58 | 52.62067 | -148.86458 | 33715 ft | 509 kts | 300° |
| 2026-05-08 02:58 | 52.65538 | -148.96632 | 33722 ft | 511 kts | 300° |
| 2026-05-08 02:59 | 52.68979 | -149.06761 | 33714 ft | 511 kts | 300° |
| 2026-05-08 02:59 | 52.72435 | -149.16978 | 33706 ft | 510 kts | 299° |
| 2026-05-08 03:00 | 52.75882 | -149.27210 | 33705 ft | 511 kts | 300° |
| 2026-05-08 03:00 | 52.79302 | -149.37401 | 33703 ft | 511 kts | 299° |
| 2026-05-08 03:01 | 52.82737 | -149.47679 | 33707 ft | 510 kts | 299° |
| 2026-05-08 03:01 | 52.86145 | -149.57919 | 33716 ft | 509 kts | 299° |
| 2026-05-08 03:02 | 52.89523 | -149.68114 | 33705 ft | 508 kts | 298° |
| 2026-05-08 03:02 | 52.92906 | -149.78365 | 33714 ft | 508 kts | 298° |
| 2026-05-08 03:03 | 52.96271 | -149.88603 | 33725 ft | 507 kts | 298° |
| 2026-05-08 03:03 | 52.99029 | -149.99262 | 33707 ft | 506 kts | 284° |
| 2026-05-08 03:04 | 53.00098 | -150.10690 | 33716 ft | 503 kts | 274° |
| 2026-05-08 03:04 | 53.00721 | -150.22183 | 33719 ft | 502 kts | 273° |
| 2026-05-08 03:05 | 53.01267 | -150.33720 | 33720 ft | 502 kts | 273° |
| 2026-05-08 03:05 | 53.01757 | -150.45175 | 33723 ft | 501 kts | 272° |
| 2026-05-08 03:06 | 53.02218 | -150.56711 | 33720 ft | 501 kts | 272° |
| 2026-05-08 03:06 | 53.02652 | -150.68147 | 33721 ft | 500 kts | 271° |
| 2026-05-08 03:07 | 53.03070 | -150.79614 | 33720 ft | 501 kts | 271° |
| 2026-05-08 03:07 | 53.03477 | -150.91170 | 33701 ft | 501 kts | 271° |
| 2026-05-08 03:08 | 53.03867 | -151.02641 | 33707 ft | 501 kts | 271° |
| 2026-05-08 03:08 | 53.04245 | -151.14094 | 33702 ft | 499 kts | 271° |
| 2026-05-08 03:09 | 53.04612 | -151.25566 | 33695 ft | 498 kts | 271° |
| 2026-05-08 03:09 | 53.04967 | -151.37010 | 33693 ft | 497 kts | 271° |
| 2026-05-08 03:10 | 53.05311 | -151.48468 | 33702 ft | 497 kts | 271° |
| 2026-05-08 03:10 | 53.05642 | -151.59888 | 33705 ft | 497 kts | 271° |
| 2026-05-08 03:11 | 53.05963 | -151.71297 | 33705 ft | 496 kts | 270° |
| 2026-05-08 03:11 | 53.06272 | -151.82690 | 33701 ft | 496 kts | 270° |
| 2026-05-08 03:12 | 53.06570 | -151.94107 | 33705 ft | 494 kts | 270° |
| 2026-05-08 03:12 | 53.06855 | -152.05386 | 33710 ft | 493 kts | 270° |
| 2026-05-08 03:13 | 53.07131 | -152.16794 | 33715 ft | 493 kts | 270° |
| 2026-05-08 03:13 | 53.07395 | -152.28140 | 33709 ft | 494 kts | 270° |
| 2026-05-08 03:14 | 53.07648 | -152.39461 | 33713 ft | 494 kts | 270° |
| 2026-05-08 03:14 | 53.07891 | -152.50800 | 33716 ft | 492 kts | 270° |
| 2026-05-08 03:15 | 53.08123 | -152.62180 | 33714 ft | 492 kts | 269° |
| 2026-05-08 03:15 | 53.08342 | -152.73459 | 33711 ft | 491 kts | 269° |
| 2026-05-08 03:16 | 53.08552 | -152.84778 | 33706 ft | 491 kts | 269° |
| 2026-05-08 03:16 | 53.08749 | -152.96057 | 33687 ft | 491 kts | 269° |
| 2026-05-08 03:17 | 53.08937 | -153.07332 | 33694 ft | 491 kts | 269° |
| 2026-05-08 03:17 | 53.09115 | -153.18698 | 33690 ft | 492 kts | 268° |
| 2026-05-08 03:18 | 53.09281 | -153.29954 | 33687 ft | 491 kts | 268° |
| 2026-05-08 03:18 | 53.09437 | -153.41251 | 33691 ft | 490 kts | 268° |
| 2026-05-08 03:19 | 53.09582 | -153.52539 | 33694 ft | 489 kts | 268° |
| 2026-05-08 03:19 | 53.09716 | -153.63825 | 33690 ft | 490 kts | 268° |
| 2026-05-08 03:20 | 53.09840 | -153.75142 | 33698 ft | 489 kts | 267° |
| 2026-05-08 03:20 | 53.09953 | -153.86400 | 33704 ft | 488 kts | 267° |
| 2026-05-08 03:21 | 53.10054 | -153.97594 | 33704 ft | 488 kts | 267° |
| 2026-05-08 03:21 | 53.10145 | -154.08867 | 33703 ft | 490 kts | 267° |
| 2026-05-08 03:22 | 53.10226 | -154.20178 | 33701 ft | 488 kts | 267° |
| 2026-05-08 03:22 | 53.10297 | -154.31456 | 33707 ft | 488 kts | 267° |
| 2026-05-08 03:23 | 53.10356 | -154.42660 | 33715 ft | 485 kts | 267° |
| 2026-05-08 03:23 | 53.10404 | -154.53851 | 33704 ft | 486 kts | 267° |
| 2026-05-08 03:24 | 53.10442 | -154.65013 | 33720 ft | 485 kts | 266° |
| 2026-05-08 03:24 | 53.10470 | -154.76221 | 33717 ft | 485 kts | 266° |
| 2026-05-08 03:25 | 53.10487 | -154.87380 | 33704 ft | 485 kts | 266° |
| 2026-05-08 03:25 | 53.10493 | -154.98509 | 33696 ft | 484 kts | 266° |
| 2026-05-08 03:26 | 53.10490 | -155.09625 | 33703 ft | 483 kts | 266° |
| 2026-05-08 03:26 | 53.10475 | -155.20828 | 33704 ft | 484 kts | 266° |
| 2026-05-08 03:27 | 53.10451 | -155.31909 | 33717 ft | 483 kts | 266° |
| 2026-05-08 03:27 | 53.10416 | -155.43069 | 33714 ft | 484 kts | 266° |
| 2026-05-08 03:28 | 53.10370 | -155.54161 | 33731 ft | 483 kts | 266° |
| 2026-05-08 03:28 | 53.10315 | -155.65305 | 33734 ft | 483 kts | 266° |
| 2026-05-08 03:29 | 53.10248 | -155.76495 | 33726 ft | 483 kts | 266° |
| 2026-05-08 03:29 | 53.10171 | -155.87601 | 33744 ft | 483 kts | 266° |
| 2026-05-08 03:30 | 53.10038 | -156.04231 | 33745 ft | 482 kts | 266° |
| 2026-05-08 03:31 | 53.09822 | -156.26521 | 33739 ft | 484 kts | 266° |
| 2026-05-08 03:32 | 53.09633 | -156.43256 | 33744 ft | 485 kts | 266° |
| 2026-05-08 03:32 | 53.09494 | -156.54395 | 33745 ft | 486 kts | 266° |
| 2026-05-08 03:33 | 53.09344 | -156.65588 | 33750 ft | 487 kts | 266° |
| 2026-05-08 03:33 | 53.09184 | -156.76788 | 33758 ft | 485 kts | 266° |
| 2026-05-08 03:34 | 53.09011 | -156.88019 | 33762 ft | 487 kts | 266° |
| 2026-05-08 03:34 | 53.08830 | -156.99191 | 33765 ft | 487 kts | 266° |
| 2026-05-08 03:35 | 53.08637 | -157.10429 | 33776 ft | 487 kts | 266° |
| 2026-05-08 03:35 | 53.08434 | -157.21674 | 33785 ft | 488 kts | 266° |
| 2026-05-08 03:36 | 53.08221 | -157.32852 | 33784 ft | 488 kts | 266° |
| 2026-05-08 03:36 | 53.07996 | -157.44089 | 33779 ft | 488 kts | 266° |
| 2026-05-08 03:37 | 53.07759 | -157.55409 | 33784 ft | 490 kts | 266° |
| 2026-05-08 03:37 | 53.07513 | -157.66623 | 33782 ft | 490 kts | 265° |
| 2026-05-08 03:38 | 53.07255 | -157.77918 | 33796 ft | 489 kts | 265° |
| 2026-05-08 03:38 | 53.07010 | -157.88283 | 33787 ft | 488 kts | 266° |
| 2026-05-08 03:39 | 53.06733 | -157.99515 | 33806 ft | 489 kts | 266° |
| 2026-05-08 03:39 | 53.06394 | -158.12707 | 33801 ft | 488 kts | 266° |
| 2026-05-08 03:40 | 53.06093 | -158.23950 | 33801 ft | 489 kts | 266° |
| 2026-05-08 03:40 | 53.05782 | -158.35196 | 33815 ft | 489 kts | 266° |
| 2026-05-08 03:41 | 53.05460 | -158.46437 | 33813 ft | 488 kts | 266° |
| 2026-05-08 03:41 | 53.05185 | -158.55791 | 33806 ft | 488 kts | 266° |
| 2026-05-08 03:42 | 53.04847 | -158.66942 | 33805 ft | 487 kts | 265° |
| 2026-05-08 03:42 | 53.04495 | -158.78177 | 33810 ft | 486 kts | 265° |
| 2026-05-08 03:43 | 53.04135 | -158.89345 | 33808 ft | 488 kts | 265° |
| 2026-05-08 03:43 | 53.03764 | -159.00543 | 33817 ft | 487 kts | 265° |
| 2026-05-08 03:44 | 53.03383 | -159.11691 | 33821 ft | 486 kts | 265° |
| 2026-05-08 03:44 | 53.02991 | -159.22876 | 33825 ft | 485 kts | 265° |
| 2026-05-08 03:45 | 53.02525 | -159.35799 | 33831 ft | 485 kts | 265° |
| 2026-05-08 03:45 | 53.02181 | -159.45085 | 33826 ft | 485 kts | 265° |
| 2026-05-08 03:46 | 53.01760 | -159.56226 | 33830 ft | 484 kts | 265° |
| 2026-05-08 03:46 | 53.01329 | -159.67333 | 33828 ft | 485 kts | 264° |
| 2026-05-08 03:47 | 53.00887 | -159.78448 | 33832 ft | 483 kts | 264° |
| 2026-05-08 03:47 | 53.00438 | -159.89484 | 33833 ft | 482 kts | 264° |
| 2026-05-08 03:48 | 53.00131 | -160.00562 | 33838 ft | 484 kts | 271° |
| 2026-05-08 03:48 | 53.01443 | -160.11551 | 33837 ft | 489 kts | 286° |
| 2026-05-08 03:49 | 53.03782 | -160.24045 | 33849 ft | 487 kts | 285° |
| 2026-05-08 03:49 | 53.05366 | -160.32964 | 33850 ft | 485 kts | 284° |
| 2026-05-08 03:50 | 53.07214 | -160.43716 | 33853 ft | 485 kts | 284° |
| 2026-05-08 03:50 | 53.09027 | -160.54524 | 33845 ft | 485 kts | 284° |
| 2026-05-08 03:51 | 53.11097 | -160.67073 | 33852 ft | 484 kts | 283° |
| 2026-05-08 03:51 | 53.12562 | -160.76056 | 33853 ft | 483 kts | 283° |
| 2026-05-08 03:52 | 53.14580 | -160.88544 | 33864 ft | 483 kts | 283° |
| 2026-05-08 03:52 | 53.16031 | -160.97591 | 33868 ft | 483 kts | 283° |
| 2026-05-08 03:53 | 53.17745 | -161.08357 | 33853 ft | 482 kts | 283° |
| 2026-05-08 03:53 | 53.19449 | -161.19130 | 33874 ft | 483 kts | 283° |
| 2026-05-08 03:54 | 53.21137 | -161.29877 | 33861 ft | 483 kts | 283° |
| 2026-05-08 03:54 | 53.23105 | -161.42499 | 33859 ft | 483 kts | 283° |
| 2026-05-08 03:55 | 53.24506 | -161.51541 | 33863 ft | 482 kts | 283° |
| 2026-05-08 03:55 | 53.26162 | -161.62299 | 33868 ft | 481 kts | 283° |
| 2026-05-08 03:56 | 53.27806 | -161.73055 | 33877 ft | 481 kts | 282° |
| 2026-05-08 03:56 | 53.29453 | -161.83891 | 33878 ft | 482 kts | 282° |
| 2026-05-08 03:57 | 53.31095 | -161.94775 | 33882 ft | 483 kts | 282° |
| 2026-05-08 03:57 | 53.32715 | -162.05589 | 33893 ft | 483 kts | 282° |
| 2026-05-08 03:58 | 53.34330 | -162.16438 | 33882 ft | 483 kts | 282° |
| 2026-05-08 03:58 | 53.35935 | -162.27290 | 33875 ft | 483 kts | 282° |
| 2026-05-08 03:59 | 53.37529 | -162.38150 | 33876 ft | 482 kts | 282° |
| 2026-05-08 03:59 | 53.39112 | -162.49004 | 33881 ft | 482 kts | 282° |
| 2026-05-08 04:00 | 53.40944 | -162.61668 | 33882 ft | 483 kts | 282° |
| 2026-05-08 04:00 | 53.42514 | -162.72597 | 33885 ft | 483 kts | 282° |
| 2026-05-08 04:01 | 53.44069 | -162.83504 | 33887 ft | 483 kts | 282° |
| 2026-05-08 04:01 | 53.45365 | -162.92653 | 33889 ft | 484 kts | 282° |
| 2026-05-08 04:02 | 53.46901 | -163.03571 | 33885 ft | 484 kts | 282° |
| 2026-05-08 04:02 | 53.48434 | -163.14534 | 33886 ft | 483 kts | 282° |
| 2026-05-08 04:03 | 53.50201 | -163.27286 | 33890 ft | 484 kts | 282° |
| 2026-05-08 04:03 | 53.52462 | -163.43764 | 33894 ft | 484 kts | 282° |
| 2026-05-08 04:04 | 53.53708 | -163.52908 | 33905 ft | 484 kts | 282° |
| 2026-05-08 04:04 | 53.55193 | -163.63901 | 33908 ft | 484 kts | 282° |
| 2026-05-08 04:05 | 53.56668 | -163.74904 | 33907 ft | 483 kts | 282° |
| 2026-05-08 04:05 | 53.58127 | -163.85861 | 33904 ft | 484 kts | 282° |
| 2026-05-08 04:06 | 53.59582 | -163.96878 | 33907 ft | 485 kts | 282° |
| 2026-05-08 04:06 | 53.61038 | -164.07982 | 33910 ft | 485 kts | 282° |
| 2026-05-08 04:07 | 53.62467 | -164.18968 | 33909 ft | 485 kts | 282° |
| 2026-05-08 04:07 | 53.63896 | -164.30037 | 33909 ft | 485 kts | 282° |
| 2026-05-08 04:08 | 53.65318 | -164.41139 | 33912 ft | 486 kts | 282° |
| 2026-05-08 04:08 | 53.66721 | -164.52179 | 33908 ft | 486 kts | 282° |
| 2026-05-08 04:09 | 53.68126 | -164.63321 | 33912 ft | 487 kts | 282° |
| 2026-05-08 04:09 | 53.69514 | -164.74422 | 33910 ft | 487 kts | 281° |
| 2026-05-08 04:10 | 53.70899 | -164.85591 | 33912 ft | 485 kts | 281° |
| 2026-05-08 04:10 | 53.72263 | -164.96672 | 33912 ft | 486 kts | 281° |
| 2026-05-08 04:11 | 53.73622 | -165.07814 | 33914 ft | 488 kts | 281° |
| 2026-05-08 04:11 | 53.74977 | -165.19006 | 33917 ft | 489 kts | 281° |
| 2026-05-08 04:12 | 53.76328 | -165.30260 | 33918 ft | 489 kts | 281° |
| 2026-05-08 04:12 | 53.77878 | -165.43300 | 33925 ft | 488 kts | 281° |
| 2026-05-08 04:13 | 53.78979 | -165.52634 | 33925 ft | 485 kts | 281° |
| 2026-05-08 04:13 | 53.80281 | -165.63766 | 33929 ft | 485 kts | 282° |
| 2026-05-08 04:14 | 53.81576 | -165.74931 | 33931 ft | 488 kts | 281° |
| 2026-05-08 04:14 | 53.82872 | -165.86197 | 33932 ft | 489 kts | 281° |
| 2026-05-08 04:15 | 53.84152 | -165.97418 | 33934 ft | 490 kts | 281° |
| 2026-05-08 04:15 | 53.85431 | -166.08749 | 33937 ft | 490 kts | 281° |
| 2026-05-08 04:16 | 53.86694 | -166.20041 | 33932 ft | 490 kts | 281° |
| 2026-05-08 04:16 | 53.87950 | -166.31360 | 33931 ft | 490 kts | 281° |
| 2026-05-08 04:17 | 53.89184 | -166.42577 | 33937 ft | 489 kts | 281° |
| 2026-05-08 04:17 | 53.90310 | -166.53931 | 33942 ft | 490 kts | 276° |
| 2026-05-08 04:18 | 53.90652 | -166.65451 | 33944 ft | 491 kts | 272° |
| 2026-05-08 04:18 | 53.90905 | -166.76984 | 33932 ft | 491 kts | 272° |
| 2026-05-08 04:19 | 53.91130 | -166.88496 | 33919 ft | 491 kts | 272° |
| 2026-05-08 04:19 | 53.91338 | -167.00047 | 33913 ft | 491 kts | 272° |
| 2026-05-08 04:20 | 53.91531 | -167.11562 | 33915 ft | 492 kts | 272° |
| 2026-05-08 04:20 | 53.91708 | -167.23112 | 33907 ft | 492 kts | 272° |
| 2026-05-08 04:21 | 53.91874 | -167.34712 | 33919 ft | 493 kts | 272° |
| 2026-05-08 04:21 | 53.92026 | -167.46246 | 33918 ft | 493 kts | 272° |
| 2026-05-08 04:22 | 53.92168 | -167.57823 | 33925 ft | 495 kts | 272° |
| 2026-05-08 04:22 | 53.92300 | -167.69447 | 33932 ft | 495 kts | 272° |
| 2026-05-08 04:23 | 53.92420 | -167.81107 | 33939 ft | 496 kts | 272° |
| 2026-05-08 04:23 | 53.92529 | -167.92725 | 33939 ft | 495 kts | 272° |
| 2026-05-08 04:24 | 53.92627 | -168.04422 | 33944 ft | 496 kts | 272° |
| 2026-05-08 04:24 | 53.92713 | -168.16052 | 33939 ft | 496 kts | 272° |
| 2026-05-08 04:25 | 53.92788 | -168.27718 | 33935 ft | 496 kts | 272° |
| 2026-05-08 04:25 | 53.92852 | -168.39366 | 33931 ft | 496 kts | 272° |
| 2026-05-08 04:26 | 53.92905 | -168.51001 | 33929 ft | 497 kts | 272° |
| 2026-05-08 04:26 | 53.92946 | -168.62620 | 33934 ft | 497 kts | 272° |
| 2026-05-08 04:27 | 53.92976 | -168.74315 | 33928 ft | 498 kts | 271° |
| 2026-05-08 04:27 | 53.92995 | -168.86041 | 33923 ft | 497 kts | 271° |
| 2026-05-08 04:28 | 53.93002 | -168.97700 | 33926 ft | 496 kts | 271° |
| 2026-05-08 04:28 | 53.92999 | -169.09332 | 33925 ft | 497 kts | 271° |
| 2026-05-08 04:29 | 53.92984 | -169.21019 | 33926 ft | 498 kts | 271° |
| 2026-05-08 04:29 | 53.92957 | -169.32787 | 33929 ft | 498 kts | 271° |
| 2026-05-08 04:30 | 53.92919 | -169.44479 | 33923 ft | 499 kts | 271° |
| 2026-05-08 04:30 | 53.92869 | -169.56174 | 33927 ft | 499 kts | 272° |
| 2026-05-08 04:31 | 53.92808 | -169.67920 | 33934 ft | 499 kts | 271° |
| 2026-05-08 04:31 | 53.92736 | -169.79622 | 33928 ft | 498 kts | 271° |
| 2026-05-08 04:32 | 53.92652 | -169.91350 | 33926 ft | 497 kts | 271° |
| 2026-05-08 04:32 | 53.92556 | -170.03024 | 33932 ft | 499 kts | 271° |
| 2026-05-08 04:33 | 53.92450 | -170.14757 | 33919 ft | 500 kts | 271° |
| 2026-05-08 04:33 | 53.92310 | -170.28458 | 33918 ft | 499 kts | 271° |
| 2026-05-08 04:34 | 53.92180 | -170.40122 | 33925 ft | 499 kts | 271° |
| 2026-05-08 04:34 | 53.92062 | -170.49902 | 33929 ft | 498 kts | 271° |
| 2026-05-08 04:35 | 53.91910 | -170.61607 | 33923 ft | 497 kts | 271° |
| 2026-05-08 04:35 | 53.91748 | -170.73231 | 33921 ft | 498 kts | 270° |
| 2026-05-08 04:36 | 53.91574 | -170.84947 | 33924 ft | 499 kts | 270° |
| 2026-05-08 04:36 | 53.91354 | -170.98673 | 33917 ft | 498 kts | 270° |
| 2026-05-08 04:37 | 53.91190 | -171.08356 | 33922 ft | 497 kts | 270° |
| 2026-05-08 04:37 | 53.90981 | -171.20067 | 33925 ft | 497 kts | 270° |
| 2026-05-08 04:38 | 53.90762 | -171.31685 | 33921 ft | 497 kts | 270° |
| 2026-05-08 04:38 | 53.90531 | -171.43379 | 33924 ft | 497 kts | 270° |
| 2026-05-08 04:39 | 53.90288 | -171.55057 | 33921 ft | 497 kts | 270° |
| 2026-05-08 04:39 | 53.90036 | -171.66660 | 33922 ft | 496 kts | 269° |
| 2026-05-08 04:40 | 53.89771 | -171.78363 | 33919 ft | 495 kts | 269° |
| 2026-05-08 04:40 | 53.89496 | -171.89975 | 33920 ft | 495 kts | 269° |
| 2026-05-08 04:41 | 53.89211 | -172.01558 | 33917 ft | 496 kts | 269° |
| 2026-05-08 04:41 | 53.88912 | -172.13207 | 33913 ft | 496 kts | 269° |
| 2026-05-08 04:42 | 53.88603 | -172.24835 | 33916 ft | 495 kts | 269° |
| 2026-05-08 04:42 | 53.88285 | -172.36380 | 33912 ft | 495 kts | 269° |
| 2026-05-08 04:43 | 53.87953 | -172.48025 | 33911 ft | 495 kts | 269° |
| 2026-05-08 04:43 | 53.87612 | -172.59615 | 33909 ft | 495 kts | 269° |
| 2026-05-08 04:44 | 53.87260 | -172.71166 | 33908 ft | 495 kts | 268° |
| 2026-05-08 04:44 | 53.86894 | -172.82788 | 33900 ft | 494 kts | 268° |
| 2026-05-08 04:45 | 53.86520 | -172.94342 | 33894 ft | 494 kts | 268° |
| 2026-05-08 04:45 | 53.86136 | -173.05870 | 33899 ft | 494 kts | 268° |
| 2026-05-08 04:46 | 53.85737 | -173.17477 | 33897 ft | 494 kts | 268° |
| 2026-05-08 04:46 | 53.85329 | -173.29047 | 33905 ft | 495 kts | 268° |
| 2026-05-08 04:47 | 53.84909 | -173.40631 | 33907 ft | 496 kts | 268° |
| 2026-05-08 04:47 | 53.84475 | -173.52296 | 33897 ft | 496 kts | 268° |
| 2026-05-08 04:48 | 53.84034 | -173.63835 | 33902 ft | 494 kts | 268° |
| 2026-05-08 04:48 | 53.83581 | -173.75386 | 33898 ft | 496 kts | 267° |
| 2026-05-08 04:49 | 53.83116 | -173.86980 | 33903 ft | 496 kts | 267° |
| 2026-05-08 04:49 | 53.82638 | -173.98587 | 33900 ft | 496 kts | 266° |
| 2026-05-08 04:50 | 53.82161 | -174.09926 | 33897 ft | 498 kts | 266° |
| 2026-05-08 04:50 | 53.81658 | -174.21613 | 33895 ft | 498 kts | 266° |
| 2026-05-08 04:51 | 53.81147 | -174.33205 | 33895 ft | 498 kts | 266° |
| 2026-05-08 04:51 | 53.80622 | -174.44881 | 33895 ft | 499 kts | 266° |
| 2026-05-08 04:52 | 53.80088 | -174.56486 | 33888 ft | 500 kts | 266° |
| 2026-05-08 04:52 | 53.79538 | -174.68196 | 33880 ft | 502 kts | 265° |
| 2026-05-08 04:53 | 53.78977 | -174.79897 | 33887 ft | 502 kts | 265° |
| 2026-05-08 04:53 | 53.78402 | -174.91650 | 33878 ft | 502 kts | 265° |
| 2026-05-08 04:54 | 53.77816 | -175.03380 | 33887 ft | 502 kts | 265° |
| 2026-05-08 04:54 | 53.77219 | -175.15094 | 33884 ft | 502 kts | 265° |
| 2026-05-08 04:55 | 53.76612 | -175.26793 | 33886 ft | 503 kts | 265° |
| 2026-05-08 04:55 | 53.75991 | -175.38522 | 33883 ft | 503 kts | 265° |
| 2026-05-08 04:56 | 53.75359 | -175.50267 | 33880 ft | 505 kts | 264° |
| 2026-05-08 04:56 | 53.74714 | -175.62013 | 33885 ft | 505 kts | 264° |
| 2026-05-08 04:57 | 53.73937 | -175.75884 | 33870 ft | 507 kts | 263° |
| 2026-05-08 04:57 | 53.73377 | -175.85713 | 33869 ft | 506 kts | 263° |
| 2026-05-08 04:58 | 53.72696 | -175.97476 | 33863 ft | 507 kts | 263° |
| 2026-05-08 04:58 | 53.72004 | -176.09239 | 33857 ft | 507 kts | 263° |
| 2026-05-08 04:59 | 53.71297 | -176.21033 | 33856 ft | 507 kts | 263° |
| 2026-05-08 04:59 | 53.70581 | -176.32787 | 33858 ft | 507 kts | 263° |
| 2026-05-08 05:00 | 53.69847 | -176.44644 | 33858 ft | 509 kts | 263° |
| 2026-05-08 05:00 | 53.69107 | -176.56407 | 33862 ft | 510 kts | 263° |
| 2026-05-08 05:01 | 53.68346 | -176.68314 | 33856 ft | 509 kts | 262° |
| 2026-05-08 05:01 | 53.67580 | -176.80115 | 33854 ft | 509 kts | 262° |
| 2026-05-08 05:02 | 53.66803 | -176.91905 | 33856 ft | 510 kts | 261° |
| 2026-05-08 05:02 | 53.66011 | -177.03734 | 33852 ft | 510 kts | 261° |
| 2026-05-08 05:03 | 53.65204 | -177.15608 | 33858 ft | 511 kts | 261° |
| 2026-05-08 05:03 | 53.64389 | -177.27466 | 33854 ft | 512 kts | 261° |
| 2026-05-08 05:04 | 53.63569 | -177.39299 | 33852 ft | 512 kts | 261° |
| 2026-05-08 05:04 | 53.62739 | -177.51091 | 33854 ft | 512 kts | 261° |
| 2026-05-08 05:05 | 53.61892 | -177.62964 | 33857 ft | 513 kts | 261° |
| 2026-05-08 05:05 | 53.61034 | -177.74824 | 33850 ft | 511 kts | 260° |
| 2026-05-08 05:06 | 53.60169 | -177.86612 | 33848 ft | 511 kts | 260° |
| 2026-05-08 05:06 | 53.59289 | -177.98438 | 33840 ft | 512 kts | 259° |
| 2026-05-08 05:07 | 53.58390 | -178.10365 | 33840 ft | 513 kts | 259° |
| 2026-05-08 05:07 | 53.57489 | -178.22145 | 33845 ft | 513 kts | 259° |
| 2026-05-08 05:08 | 53.56570 | -178.34019 | 33851 ft | 514 kts | 259° |
| 2026-05-08 05:08 | 53.55635 | -178.45941 | 33848 ft | 514 kts | 259° |
| 2026-05-08 05:09 | 53.54692 | -178.57803 | 33852 ft | 513 kts | 259° |
| 2026-05-08 05:09 | 53.53741 | -178.69615 | 33854 ft | 513 kts | 258° |
| 2026-05-08 05:10 | 53.52294 | -178.87321 | 33849 ft | 513 kts | 258° |
| 2026-05-08 05:11 | 53.51309 | -178.99173 | 33845 ft | 512 kts | 258° |
| 2026-05-08 05:11 | 53.50315 | -179.10989 | 33852 ft | 514 kts | 258° |
| 2026-05-08 05:12 | 53.49315 | -179.22731 | 33848 ft | 512 kts | 258° |
| 2026-05-08 05:12 | 53.48297 | -179.34554 | 33835 ft | 512 kts | 258° |
| 2026-05-08 05:13 | 53.47270 | -179.46332 | 33823 ft | 512 kts | 258° |
| 2026-05-08 05:13 | 53.46229 | -179.58131 | 33829 ft | 512 kts | 257° |
| 2026-05-08 05:14 | 53.45178 | -179.69910 | 33826 ft | 514 kts | 257° |
| 2026-05-08 05:14 | 53.44119 | -179.81644 | 33825 ft | 512 kts | 257° |
| 2026-05-08 05:15 | 53.43055 | -179.93311 | 33860 ft | 510 kts | 257° |
| 2026-05-08 05:15 | 53.41975 | 179.94994 | 33841 ft | 509 kts | 257° |
| 2026-05-08 05:16 | 53.40882 | 179.83278 | 33839 ft | 508 kts | 257° |
| 2026-05-08 05:16 | 53.39782 | 179.71623 | 33836 ft | 508 kts | 257° |
| 2026-05-08 05:17 | 53.38676 | 179.60028 | 33854 ft | 506 kts | 257° |
| 2026-05-08 05:17 | 53.37560 | 179.48445 | 33841 ft | 506 kts | 257° |
| 2026-05-08 05:18 | 53.36432 | 179.36867 | 33826 ft | 505 kts | 257° |
| 2026-05-08 05:18 | 53.35304 | 179.25403 | 33834 ft | 502 kts | 257° |
| 2026-05-08 05:19 | 53.34163 | 179.13931 | 33857 ft | 502 kts | 257° |
| 2026-05-08 05:19 | 53.33008 | 179.02429 | 33840 ft | 500 kts | 257° |
| 2026-05-08 05:20 | 53.31852 | 178.91040 | 33842 ft | 500 kts | 257° |
| 2026-05-08 05:20 | 53.30683 | 178.79637 | 33860 ft | 499 kts | 257° |
| 2026-05-08 05:21 | 53.29502 | 178.68216 | 33868 ft | 498 kts | 257° |
| 2026-05-08 05:21 | 53.28316 | 178.56863 | 33867 ft | 497 kts | 257° |
| 2026-05-08 05:22 | 53.27129 | 178.45613 | 33863 ft | 496 kts | 258° |
| 2026-05-08 05:22 | 53.25927 | 178.34319 | 33845 ft | 495 kts | 257° |
| 2026-05-08 05:23 | 53.24719 | 178.23088 | 33869 ft | 492 kts | 257° |
| 2026-05-08 05:23 | 53.23501 | 178.11856 | 33869 ft | 492 kts | 257° |
| 2026-05-08 05:24 | 53.22277 | 178.00679 | 33873 ft | 492 kts | 257° |
| 2026-05-08 05:24 | 53.21040 | 177.89479 | 33865 ft | 490 kts | 257° |
| 2026-05-08 05:25 | 53.19800 | 177.78361 | 33866 ft | 489 kts | 257° |
| 2026-05-08 05:25 | 53.18557 | 177.67314 | 33847 ft | 488 kts | 257° |
| 2026-05-08 05:26 | 53.17300 | 177.56235 | 33855 ft | 487 kts | 258° |
| 2026-05-08 05:26 | 53.16043 | 177.45250 | 33847 ft | 484 kts | 258° |
| 2026-05-08 05:27 | 53.14773 | 177.34258 | 33857 ft | 485 kts | 257° |
| 2026-05-08 05:27 | 53.13506 | 177.23369 | 33859 ft | 484 kts | 257° |
| 2026-05-08 05:28 | 53.12220 | 177.12418 | 33852 ft | 483 kts | 257° |
| 2026-05-08 05:28 | 53.10922 | 177.01462 | 33867 ft | 483 kts | 258° |
| 2026-05-08 05:29 | 53.09618 | 176.90536 | 33856 ft | 481 kts | 258° |
| 2026-05-08 05:29 | 53.08301 | 176.79597 | 33858 ft | 482 kts | 258° |
| 2026-05-08 05:30 | 53.06988 | 176.68784 | 33852 ft | 480 kts | 258° |
| 2026-05-08 05:30 | 53.05657 | 176.57901 | 33856 ft | 480 kts | 258° |
| 2026-05-08 05:31 | 53.04320 | 176.47064 | 33861 ft | 479 kts | 258° |
| 2026-05-08 05:31 | 53.02981 | 176.36295 | 33859 ft | 480 kts | 258° |
| 2026-05-08 05:32 | 53.01631 | 176.25525 | 33860 ft | 479 kts | 257° |
| 2026-05-08 05:32 | 53.00262 | 176.14681 | 33858 ft | 478 kts | 257° |
| 2026-05-08 05:33 | 52.98893 | 176.03926 | 33857 ft | 479 kts | 258° |
| 2026-05-08 05:33 | 52.97513 | 175.93170 | 33860 ft | 478 kts | 258° |
| 2026-05-08 05:34 | 52.96131 | 175.82475 | 33861 ft | 476 kts | 258° |
| 2026-05-08 05:34 | 52.94738 | 175.71780 | 33863 ft | 475 kts | 258° |
| 2026-05-08 05:35 | 52.93339 | 175.61116 | 33862 ft | 473 kts | 258° |
| 2026-05-08 05:35 | 52.91941 | 175.50537 | 33861 ft | 474 kts | 258° |
| 2026-05-08 05:36 | 52.90533 | 175.39969 | 33871 ft | 472 kts | 258° |
| 2026-05-08 05:36 | 52.89106 | 175.29326 | 33882 ft | 472 kts | 257° |
| 2026-05-08 05:37 | 52.87684 | 175.18806 | 33881 ft | 471 kts | 257° |
| 2026-05-08 05:37 | 52.86255 | 175.08305 | 33881 ft | 470 kts | 257° |
| 2026-05-08 05:38 | 52.84814 | 174.97788 | 33880 ft | 471 kts | 257° |
| 2026-05-08 05:38 | 52.83360 | 174.87251 | 33879 ft | 469 kts | 257° |
| 2026-05-08 05:39 | 52.81913 | 174.76851 | 33875 ft | 467 kts | 257° |
| 2026-05-08 05:39 | 52.80444 | 174.66353 | 33871 ft | 467 kts | 257° |
| 2026-05-08 05:40 | 52.78975 | 174.55930 | 33869 ft | 466 kts | 257° |
| 2026-05-08 05:40 | 52.77503 | 174.45560 | 33862 ft | 467 kts | 257° |
| 2026-05-08 05:41 | 52.76022 | 174.35191 | 33867 ft | 465 kts | 258° |
| 2026-05-08 05:41 | 52.74524 | 174.24780 | 33875 ft | 468 kts | 257° |
| 2026-05-08 05:42 | 52.73025 | 174.14433 | 33870 ft | 466 kts | 257° |
| 2026-05-08 05:42 | 52.71473 | 174.04150 | 33878 ft | 466 kts | 256° |
| 2026-05-08 05:42 | 52.70623 | 173.98932 | 34052 ft | 472 kts | 256° |
| 2026-05-08 05:43 | 52.69778 | 173.93779 | 34600 ft | 468 kts | 256° |
| 2026-05-08 05:43 | 52.68932 | 173.88644 | 35285 ft | 461 kts | 256° |
| 2026-05-08 05:43 | 52.68092 | 173.83560 | 35755 ft | 459 kts | 255° |
| 2026-05-08 05:43 | 52.67254 | 173.78502 | 35859 ft | 465 kts | 255° |
| 2026-05-08 05:44 | 52.66405 | 173.73398 | 35866 ft | 464 kts | 256° |
| 2026-05-08 05:44 | 52.64703 | 173.63219 | 35868 ft | 463 kts | 256° |
| 2026-05-08 05:45 | 52.62987 | 173.53015 | 35863 ft | 462 kts | 256° |
| 2026-05-08 05:45 | 52.61270 | 173.42870 | 35870 ft | 464 kts | 256° |
| 2026-05-08 05:46 | 52.59535 | 173.32680 | 35863 ft | 463 kts | 255° |
| 2026-05-08 05:46 | 52.57806 | 173.22583 | 35870 ft | 463 kts | 255° |
| 2026-05-08 05:47 | 52.56054 | 173.12408 | 35862 ft | 460 kts | 255° |
| 2026-05-08 05:47 | 52.54308 | 173.02325 | 35864 ft | 460 kts | 255° |
| 2026-05-08 05:48 | 52.52556 | 172.92270 | 35859 ft | 460 kts | 255° |
| 2026-05-08 05:48 | 52.50792 | 172.82204 | 35858 ft | 460 kts | 255° |
| 2026-05-08 05:49 | 52.49032 | 172.72212 | 35861 ft | 459 kts | 255° |
| 2026-05-08 05:49 | 52.47261 | 172.62219 | 35859 ft | 459 kts | 255° |
| 2026-05-08 05:50 | 52.45474 | 172.52185 | 35857 ft | 459 kts | 255° |
| 2026-05-08 05:50 | 52.43691 | 172.42232 | 35856 ft | 458 kts | 255° |
| 2026-05-08 05:51 | 52.41891 | 172.32242 | 35861 ft | 458 kts | 255° |
| 2026-05-08 05:51 | 52.40099 | 172.22345 | 35861 ft | 458 kts | 255° |
| 2026-05-08 05:52 | 52.38290 | 172.12413 | 35856 ft | 458 kts | 255° |
| 2026-05-08 05:52 | 52.36466 | 172.02447 | 35861 ft | 456 kts | 255° |
| 2026-05-08 05:53 | 52.34652 | 171.92589 | 35868 ft | 456 kts | 255° |
| 2026-05-08 05:53 | 52.32816 | 171.82669 | 35880 ft | 457 kts | 255° |
| 2026-05-08 05:54 | 52.30982 | 171.72812 | 35871 ft | 455 kts | 255° |
| 2026-05-08 05:54 | 52.29148 | 171.63007 | 35875 ft | 453 kts | 255° |
| 2026-05-08 05:55 | 52.27299 | 171.53172 | 35868 ft | 453 kts | 255° |
| 2026-05-08 05:55 | 52.25447 | 171.43376 | 35869 ft | 452 kts | 255° |
| 2026-05-08 05:56 | 52.23592 | 171.33611 | 35866 ft | 452 kts | 254° |
| 2026-05-08 05:56 | 52.21739 | 171.23909 | 35863 ft | 450 kts | 255° |
| 2026-05-08 05:57 | 52.19874 | 171.14192 | 35862 ft | 452 kts | 255° |
| 2026-05-08 05:57 | 52.17996 | 171.04457 | 35862 ft | 452 kts | 254° |
| 2026-05-08 05:58 | 52.16120 | 170.94785 | 35858 ft | 450 kts | 255° |
| 2026-05-08 05:58 | 52.14235 | 170.85112 | 35862 ft | 451 kts | 254° |
| 2026-05-08 05:59 | 52.12339 | 170.75432 | 35860 ft | 450 kts | 255° |
| 2026-05-08 05:59 | 52.10831 | 170.65660 | 35867 ft | 448 kts | 261° |
| 2026-05-08 06:00 | 52.09662 | 170.55778 | 35859 ft | 446 kts | 261° |
| 2026-05-08 06:00 | 52.08445 | 170.45877 | 35859 ft | 447 kts | 261° |
| 2026-05-08 06:01 | 52.07212 | 170.36083 | 35860 ft | 445 kts | 260° |
| 2026-05-08 06:01 | 52.05955 | 170.26259 | 35863 ft | 445 kts | 260° |
| 2026-05-08 06:02 | 52.04694 | 170.16505 | 35864 ft | 445 kts | 260° |
| 2026-05-08 06:02 | 52.03415 | 170.06711 | 35863 ft | 445 kts | 260° |
| 2026-05-08 06:03 | 52.02122 | 169.96890 | 35859 ft | 443 kts | 260° |
| 2026-05-08 06:03 | 52.00832 | 169.87167 | 35865 ft | 443 kts | 260° |
| 2026-05-08 06:04 | 51.99534 | 169.77452 | 35861 ft | 443 kts | 260° |
| 2026-05-08 06:04 | 51.98226 | 169.67728 | 35860 ft | 441 kts | 259° |
| 2026-05-08 06:05 | 51.96915 | 169.58040 | 35860 ft | 441 kts | 259° |
| 2026-05-08 06:05 | 51.95607 | 169.48445 | 35866 ft | 440 kts | 260° |
| 2026-05-08 06:06 | 51.94279 | 169.38768 | 35850 ft | 440 kts | 260° |
| 2026-05-08 06:06 | 51.92941 | 169.29108 | 35872 ft | 441 kts | 259° |
| 2026-05-08 06:07 | 51.91599 | 169.19470 | 35886 ft | 443 kts | 259° |
| 2026-05-08 06:07 | 51.90254 | 169.09836 | 35865 ft | 442 kts | 259° |
| 2026-05-08 06:08 | 51.88900 | 169.00169 | 35862 ft | 440 kts | 259° |
| 2026-05-08 06:08 | 51.87548 | 168.90573 | 35864 ft | 441 kts | 259° |
| 2026-05-08 06:09 | 51.86180 | 168.80978 | 35850 ft | 437 kts | 259° |
| 2026-05-08 06:09 | 51.84804 | 168.71428 | 35845 ft | 440 kts | 259° |
| 2026-05-08 06:10 | 51.83417 | 168.61845 | 35846 ft | 434 kts | 259° |
| 2026-05-08 06:10 | 51.82035 | 168.52350 | 35836 ft | 437 kts | 259° |
| 2026-05-08 06:11 | 51.80655 | 168.42915 | 35847 ft | 434 kts | 259° |
| 2026-05-08 06:11 | 51.79265 | 168.33466 | 35846 ft | 435 kts | 259° |
| 2026-05-08 06:12 | 51.77859 | 168.23970 | 35841 ft | 432 kts | 259° |
| 2026-05-08 06:12 | 51.76459 | 168.14568 | 35849 ft | 433 kts | 259° |
| 2026-05-08 06:13 | 51.75050 | 168.05158 | 35853 ft | 434 kts | 259° |
| 2026-05-08 06:13 | 51.73640 | 167.95802 | 35858 ft | 432 kts | 259° |
| 2026-05-08 06:14 | 51.72219 | 167.86430 | 35853 ft | 432 kts | 259° |
| 2026-05-08 06:14 | 51.70790 | 167.77060 | 35846 ft | 431 kts | 259° |
| 2026-05-08 06:15 | 51.69361 | 167.67741 | 35846 ft | 429 kts | 259° |
| 2026-05-08 06:15 | 51.67934 | 167.58476 | 35840 ft | 430 kts | 259° |
| 2026-05-08 06:16 | 51.66488 | 167.49147 | 35848 ft | 427 kts | 258° |
| 2026-05-08 06:16 | 51.65048 | 167.39923 | 35849 ft | 428 kts | 259° |
| 2026-05-08 06:17 | 51.62861 | 167.26042 | 35854 ft | 427 kts | 258° |
| 2026-05-08 06:17 | 51.61412 | 167.16859 | 35861 ft | 425 kts | 258° |
| 2026-05-08 06:18 | 51.59956 | 167.07678 | 35862 ft | 427 kts | 258° |
| 2026-05-08 06:18 | 51.58492 | 166.98534 | 35862 ft | 425 kts | 258° |
| 2026-05-08 06:19 | 51.57017 | 166.89368 | 35853 ft | 426 kts | 258° |
| 2026-05-08 06:19 | 51.55534 | 166.80203 | 35856 ft | 423 kts | 258° |
| 2026-05-08 06:20 | 51.54056 | 166.71114 | 35863 ft | 422 kts | 258° |
| 2026-05-08 06:20 | 51.52572 | 166.62039 | 35853 ft | 421 kts | 258° |
| 2026-05-08 06:21 | 51.51086 | 166.52994 | 35858 ft | 422 kts | 258° |
| 2026-05-08 06:21 | 51.49585 | 166.43913 | 35851 ft | 421 kts | 258° |
| 2026-05-08 06:22 | 51.48080 | 166.34853 | 35857 ft | 420 kts | 257° |
| 2026-05-08 06:22 | 51.46581 | 166.25880 | 35862 ft | 421 kts | 258° |
| 2026-05-08 06:23 | 51.45065 | 166.16853 | 35861 ft | 416 kts | 258° |
| 2026-05-08 06:23 | 51.43557 | 166.07915 | 35852 ft | 419 kts | 258° |
| 2026-05-08 06:24 | 51.42043 | 165.98991 | 35834 ft | 419 kts | 258° |
| 2026-05-08 06:24 | 51.40509 | 165.89989 | 35846 ft | 418 kts | 257° |
| 2026-05-08 06:25 | 51.38982 | 165.81078 | 35849 ft | 416 kts | 257° |
| 2026-05-08 06:25 | 51.37455 | 165.72215 | 35850 ft | 417 kts | 258° |
| 2026-05-08 06:26 | 51.35917 | 165.63359 | 35839 ft | 416 kts | 257° |
| 2026-05-08 06:26 | 51.34222 | 165.54567 | 35852 ft | 413 kts | 256° |
| 2026-05-08 06:27 | 51.32503 | 165.45783 | 35836 ft | 416 kts | 257° |
| 2026-05-08 06:27 | 51.30788 | 165.37068 | 35828 ft | 410 kts | 256° |
| 2026-05-08 06:28 | 51.29068 | 165.28381 | 35847 ft | 413 kts | 256° |
| 2026-05-08 06:28 | 51.27338 | 165.19624 | 35846 ft | 414 kts | 256° |
| 2026-05-08 06:29 | 51.25612 | 165.10953 | 35848 ft | 413 kts | 255° |
| 2026-05-08 06:29 | 51.23876 | 165.02283 | 35834 ft | 408 kts | 256° |
| 2026-05-08 06:30 | 51.22149 | 164.93723 | 35847 ft | 408 kts | 256° |
| 2026-05-08 06:30 | 51.20408 | 164.85124 | 35839 ft | 411 kts | 256° |
| 2026-05-08 06:31 | 51.18662 | 164.76497 | 35827 ft | 406 kts | 256° |
| 2026-05-08 06:31 | 51.16924 | 164.67937 | 35832 ft | 410 kts | 256° |
| 2026-05-08 06:32 | 51.15176 | 164.59442 | 35841 ft | 405 kts | 256° |
| 2026-05-08 06:32 | 51.13422 | 164.50920 | 35856 ft | 404 kts | 256° |
| 2026-05-08 06:33 | 51.11676 | 164.42442 | 35836 ft | 404 kts | 256° |
| 2026-05-08 06:33 | 51.09941 | 164.34027 | 35836 ft | 405 kts | 255° |
| 2026-05-08 06:34 | 51.08181 | 164.25604 | 35857 ft | 402 kts | 255° |
| 2026-05-08 06:34 | 51.06415 | 164.17151 | 35858 ft | 405 kts | 256° |
| 2026-05-08 06:35 | 51.04654 | 164.08774 | 35851 ft | 400 kts | 255° |
| 2026-05-08 06:35 | 51.02899 | 164.00436 | 35828 ft | 401 kts | 256° |
| 2026-05-08 06:36 | 51.01121 | 163.92059 | 35849 ft | 398 kts | 255° |
| 2026-05-08 06:36 | 50.99342 | 163.83737 | 35859 ft | 399 kts | 256° |
| 2026-05-08 06:37 | 50.97590 | 163.75505 | 35845 ft | 397 kts | 256° |
| 2026-05-08 06:37 | 50.95817 | 163.67204 | 35848 ft | 400 kts | 256° |
| 2026-05-08 06:38 | 50.94042 | 163.58960 | 35841 ft | 397 kts | 256° |
| 2026-05-08 06:38 | 50.92269 | 163.50722 | 35838 ft | 393 kts | 255° |
| 2026-05-08 06:39 | 50.90492 | 163.42555 | 35861 ft | 393 kts | 256° |
| 2026-05-08 06:39 | 50.88728 | 163.34470 | 35843 ft | 390 kts | 255° |
| 2026-05-08 06:40 | 50.86959 | 163.26349 | 35847 ft | 391 kts | 255° |
| 2026-05-08 06:40 | 50.85191 | 163.18268 | 35858 ft | 390 kts | 254° |
| 2026-05-08 06:41 | 50.84297 | 163.14246 | 35614 ft | 390 kts | 255° |
| 2026-05-08 06:41 | 50.83400 | 163.10191 | 35824 ft | 391 kts | 255° |
| 2026-05-08 06:41 | 50.81597 | 163.02037 | 35834 ft | 394 kts | 255° |
| 2026-05-08 06:42 | 50.79784 | 162.93896 | 35841 ft | 393 kts | 255° |
| 2026-05-08 06:42 | 50.77985 | 162.85814 | 35743 ft | 392 kts | 255° |
| 2026-05-08 06:43 | 50.77080 | 162.81761 | 35847 ft | 392 kts | 255° |
| 2026-05-08 06:43 | 50.76186 | 162.77714 | 35838 ft | 388 kts | 255° |
| 2026-05-08 06:43 | 50.74386 | 162.69717 | 35836 ft | 391 kts | 255° |
| 2026-05-08 06:44 | 50.72573 | 162.61699 | 35821 ft | 387 kts | 256° |
| 2026-05-08 06:44 | 50.70763 | 162.53665 | 35859 ft | 390 kts | 255° |
| 2026-05-08 06:45 | 50.68921 | 162.45752 | 35836 ft | 384 kts | 255° |
| 2026-05-08 06:45 | 50.67115 | 162.37797 | 35827 ft | 385 kts | 255° |
| 2026-05-08 06:46 | 50.65335 | 162.29887 | 35856 ft | 385 kts | 255° |
| 2026-05-08 06:46 | 50.63508 | 162.21982 | 35837 ft | 386 kts | 254° |
| 2026-05-08 06:47 | 50.61668 | 162.14137 | 35853 ft | 382 kts | 255° |
| 2026-05-08 06:47 | 50.59860 | 162.06277 | 35846 ft | 381 kts | 255° |
| 2026-05-08 06:48 | 50.58053 | 161.98428 | 35853 ft | 380 kts | 255° |
| 2026-05-08 06:48 | 50.56290 | 161.90631 | 35855 ft | 382 kts | 255° |
| 2026-05-08 06:49 | 50.54422 | 161.82851 | 35863 ft | 378 kts | 255° |
| 2026-05-08 06:49 | 50.52608 | 161.75122 | 35838 ft | 381 kts | 255° |
| 2026-05-08 06:50 | 50.50792 | 161.67323 | 35836 ft | 382 kts | 256° |
| 2026-05-08 06:50 | 50.48951 | 161.59575 | 35857 ft | 381 kts | 253° |
| 2026-05-08 06:51 | 50.47087 | 161.51872 | 35830 ft | 375 kts | 255° |
| 2026-05-08 06:51 | 50.45268 | 161.44197 | 35854 ft | 381 kts | 254° |
| 2026-05-08 06:52 | 50.43457 | 161.36528 | 35844 ft | 375 kts | 254° |
| 2026-05-08 06:52 | 50.41623 | 161.28893 | 35859 ft | 377 kts | 254° |
| 2026-05-08 06:53 | 50.39769 | 161.21213 | 35868 ft | 374 kts | 254° |
| 2026-05-08 06:53 | 50.37938 | 161.13631 | 35855 ft | 375 kts | 255° |
| 2026-05-08 06:54 | 50.36089 | 161.06049 | 35853 ft | 374 kts | 254° |
| 2026-05-08 06:54 | 50.34235 | 160.98492 | 35843 ft | 372 kts | 254° |
| 2026-05-08 06:55 | 50.32400 | 160.90951 | 35869 ft | 375 kts | 253° |
| 2026-05-08 06:55 | 50.30547 | 160.83392 | 35832 ft | 370 kts | 255° |
| 2026-05-08 06:56 | 50.28708 | 160.75882 | 35858 ft | 371 kts | 255° |
| 2026-05-08 06:56 | 50.26876 | 160.68384 | 35828 ft | 372 kts | 253° |
| 2026-05-08 06:57 | 50.24989 | 160.60883 | 35830 ft | 367 kts | 253° |
| 2026-05-08 06:57 | 50.23115 | 160.53470 | 35811 ft | 368 kts | 253° |
| 2026-05-08 06:58 | 50.21257 | 160.46028 | 35846 ft | 369 kts | 255° |
| 2026-05-08 06:58 | 50.19216 | 160.38782 | 35864 ft | 370 kts | 246° |
| 2026-05-08 06:59 | 50.16271 | 160.32001 | 36198 ft | 383 kts | 242° |
| 2026-05-08 06:59 | 50.14745 | 160.28662 | 36719 ft | 380 kts | 243° |
| 2026-05-08 06:59 | 50.13211 | 160.25304 | 36877 ft | 384 kts | 242° |
| 2026-05-08 07:00 | 50.10142 | 160.18512 | 36885 ft | 386 kts | 242° |
| 2026-05-08 07:00 | 50.07035 | 160.11755 | 36866 ft | 386 kts | 243° |
| 2026-05-08 07:01 | 50.03963 | 160.04980 | 36893 ft | 381 kts | 243° |
| 2026-05-08 07:01 | 50.00832 | 159.98322 | 36902 ft | 384 kts | 242° |
| 2026-05-08 07:02 | 49.97773 | 159.91685 | 36884 ft | 379 kts | 243° |
| 2026-05-08 07:02 | 49.94680 | 159.85002 | 36885 ft | 383 kts | 241° |
| 2026-05-08 07:03 | 49.91617 | 159.78403 | 36893 ft | 379 kts | 242° |
| 2026-05-08 07:03 | 49.88509 | 159.71773 | 36877 ft | 377 kts | 242° |
| 2026-05-08 07:04 | 49.85406 | 159.65282 | 36922 ft | 375 kts | 242° |
| 2026-05-08 07:04 | 49.82342 | 159.58758 | 36906 ft | 379 kts | 242° |
| 2026-05-08 07:05 | 49.79287 | 159.52243 | 36854 ft | 371 kts | 242° |
| 2026-05-08 07:05 | 49.76235 | 159.45744 | 36850 ft | 375 kts | 243° |
| 2026-05-08 07:06 | 49.73156 | 159.39272 | 36861 ft | 375 kts | 243° |
| 2026-05-08 07:06 | 49.70104 | 159.32828 | 36894 ft | 373 kts | 242° |
| 2026-05-08 07:07 | 49.66987 | 159.26396 | 36884 ft | 374 kts | 240° |
| 2026-05-08 07:07 | 49.63855 | 159.19989 | 36893 ft | 374 kts | 241° |
| 2026-05-08 07:08 | 49.60709 | 159.13635 | 36900 ft | 371 kts | 240° |
| 2026-05-08 07:08 | 49.57597 | 159.07323 | 36861 ft | 375 kts | 240° |
| 2026-05-08 07:09 | 49.54449 | 159.01001 | 36892 ft | 373 kts | 241° |
| 2026-05-08 07:09 | 49.51322 | 158.94641 | 36884 ft | 372 kts | 241° |
| 2026-05-08 07:10 | 49.48188 | 158.88362 | 36883 ft | 375 kts | 240° |
| 2026-05-08 07:10 | 49.45056 | 158.82072 | 36858 ft | 370 kts | 241° |
| 2026-05-08 07:11 | 49.41923 | 158.75754 | 36882 ft | 372 kts | 241° |
| 2026-05-08 07:11 | 49.38805 | 158.69519 | 36866 ft | 370 kts | 241° |
| 2026-05-08 07:12 | 49.35654 | 158.63277 | 36876 ft | 371 kts | 240° |
| 2026-05-08 07:12 | 49.32516 | 158.57042 | 36855 ft | 370 kts | 241° |
| 2026-05-08 07:13 | 49.29401 | 158.50833 | 36876 ft | 369 kts | 242° |
| 2026-05-08 07:13 | 49.26261 | 158.44592 | 36861 ft | 367 kts | 241° |
| 2026-05-08 07:14 | 49.23154 | 158.38422 | 36877 ft | 369 kts | 241° |
| 2026-05-08 07:14 | 49.20032 | 158.32262 | 36886 ft | 369 kts | 240° |
| 2026-05-08 07:15 | 49.16895 | 158.26091 | 36888 ft | 367 kts | 240° |
| 2026-05-08 07:15 | 49.13762 | 158.19937 | 36897 ft | 369 kts | 240° |
| 2026-05-08 07:16 | 49.10645 | 158.13792 | 36891 ft | 367 kts | 239° |
| 2026-05-08 07:16 | 49.07523 | 158.07704 | 36898 ft | 369 kts | 240° |
| 2026-05-08 07:17 | 49.04370 | 158.01562 | 36894 ft | 365 kts | 240° |
| 2026-05-08 07:17 | 49.01246 | 157.95483 | 36877 ft | 367 kts | 240° |
| 2026-05-08 07:18 | 48.98117 | 157.89369 | 36900 ft | 366 kts | 240° |
| 2026-05-08 07:18 | 48.94999 | 157.83302 | 36895 ft | 367 kts | 240° |
| 2026-05-08 07:19 | 48.91848 | 157.77225 | 36898 ft | 368 kts | 240° |
| 2026-05-08 07:19 | 48.88716 | 157.71182 | 36900 ft | 366 kts | 239° |
| 2026-05-08 07:20 | 48.85564 | 157.65134 | 36894 ft | 365 kts | 239° |
| 2026-05-08 07:20 | 48.82428 | 157.59096 | 36909 ft | 365 kts | 240° |
| 2026-05-08 07:21 | 48.79283 | 157.53084 | 36893 ft | 365 kts | 240° |
| 2026-05-08 07:21 | 48.76138 | 157.47078 | 36899 ft | 365 kts | 239° |
| 2026-05-08 07:22 | 48.72977 | 157.41051 | 36892 ft | 366 kts | 240° |
| 2026-05-08 07:22 | 48.69818 | 157.35040 | 36889 ft | 367 kts | 240° |
| 2026-05-08 07:23 | 48.66649 | 157.29024 | 36914 ft | 366 kts | 239° |
| 2026-05-08 07:23 | 48.63485 | 157.23030 | 36911 ft | 366 kts | 238° |
| 2026-05-08 07:24 | 48.60324 | 157.17055 | 36911 ft | 368 kts | 239° |
| 2026-05-08 07:24 | 48.57129 | 157.11026 | 36909 ft | 367 kts | 238° |
| 2026-05-08 07:25 | 48.53944 | 157.05034 | 36908 ft | 367 kts | 239° |
| 2026-05-08 07:26 | 48.49184 | 156.96100 | 36905 ft | 369 kts | 238° |
| 2026-05-08 07:26 | 48.45961 | 156.90071 | 36902 ft | 367 kts | 239° |
| 2026-05-08 07:27 | 48.42763 | 156.84097 | 36903 ft | 370 kts | 238° |
| 2026-05-08 07:27 | 48.39559 | 156.78131 | 36898 ft | 366 kts | 238° |
| 2026-05-08 07:28 | 48.36344 | 156.72153 | 36903 ft | 368 kts | 238° |
| 2026-05-08 07:28 | 48.33133 | 156.66199 | 36901 ft | 366 kts | 238° |
| 2026-05-08 07:29 | 48.29917 | 156.60246 | 36905 ft | 367 kts | 238° |
| 2026-05-08 07:29 | 48.26729 | 156.54359 | 36906 ft | 367 kts | 238° |
| 2026-05-08 07:30 | 48.23511 | 156.48428 | 36905 ft | 368 kts | 238° |
| 2026-05-08 07:30 | 48.20303 | 156.42531 | 36907 ft | 367 kts | 237° |
| 2026-05-08 07:31 | 48.17069 | 156.36600 | 36895 ft | 365 kts | 238° |
| 2026-05-08 07:31 | 48.13852 | 156.30708 | 36915 ft | 370 kts | 237° |
| 2026-05-08 07:32 | 48.10624 | 156.24814 | 36912 ft | 368 kts | 237° |
| 2026-05-08 07:32 | 48.07389 | 156.18916 | 36910 ft | 368 kts | 237° |
| 2026-05-08 07:33 | 48.04150 | 156.13028 | 36907 ft | 367 kts | 237° |
| 2026-05-08 07:33 | 48.02531 | 156.10089 | 37122 ft | 367 kts | 237° |
| 2026-05-08 07:33 | 48.00899 | 156.07130 | 36897 ft | 367 kts | 237° |
| 2026-05-08 07:34 | 47.97686 | 156.01311 | 36902 ft | 367 kts | 237° |
| 2026-05-08 07:34 | 47.94463 | 155.95489 | 36899 ft | 366 kts | 236° |
| 2026-05-08 07:35 | 47.91245 | 155.89688 | 36898 ft | 367 kts | 236° |
| 2026-05-08 07:35 | 47.88013 | 155.83872 | 36903 ft | 367 kts | 236° |
| 2026-05-08 07:36 | 47.84748 | 155.78012 | 36901 ft | 367 kts | 236° |
| 2026-05-08 07:36 | 47.81506 | 155.72206 | 36901 ft | 368 kts | 236° |
| 2026-05-08 07:37 | 47.78247 | 155.66380 | 36897 ft | 367 kts | 236° |
| 2026-05-08 07:37 | 47.74979 | 155.60553 | 36892 ft | 367 kts | 236° |
| 2026-05-08 07:38 | 47.71723 | 155.54759 | 36900 ft | 368 kts | 236° |
| 2026-05-08 07:38 | 47.68459 | 155.48964 | 36894 ft | 370 kts | 236° |
| 2026-05-08 07:39 | 47.65171 | 155.43137 | 36894 ft | 368 kts | 237° |
| 2026-05-08 07:39 | 47.61877 | 155.37311 | 36894 ft | 369 kts | 236° |
| 2026-05-08 07:40 | 47.58614 | 155.31555 | 36912 ft | 370 kts | 235° |
| 2026-05-08 07:40 | 47.55302 | 155.25723 | 36911 ft | 372 kts | 236° |
| 2026-05-08 07:41 | 47.51984 | 155.19896 | 36907 ft | 370 kts | 236° |
| 2026-05-08 07:41 | 47.48677 | 155.14101 | 36908 ft | 371 kts | 235° |
| 2026-05-08 07:42 | 47.45351 | 155.08283 | 36908 ft | 370 kts | 235° |
| 2026-05-08 07:42 | 47.42021 | 155.02467 | 36903 ft | 372 kts | 236° |
| 2026-05-08 07:43 | 47.38695 | 154.96675 | 36901 ft | 372 kts | 235° |
| 2026-05-08 07:43 | 47.35347 | 154.90857 | 36894 ft | 372 kts | 235° |
| 2026-05-08 07:44 | 47.32026 | 154.85097 | 36899 ft | 373 kts | 235° |
| 2026-05-08 07:44 | 47.28670 | 154.79291 | 36901 ft | 373 kts | 235° |
| 2026-05-08 07:45 | 47.25298 | 154.73468 | 36897 ft | 372 kts | 234° |
| 2026-05-08 07:45 | 47.21962 | 154.67720 | 36897 ft | 373 kts | 235° |
| 2026-05-08 07:46 | 47.18609 | 154.61954 | 36885 ft | 374 kts | 235° |
| 2026-05-08 07:46 | 47.15230 | 154.56155 | 36874 ft | 373 kts | 234° |
| 2026-05-08 07:47 | 47.11867 | 154.50397 | 36868 ft | 372 kts | 235° |
| 2026-05-08 07:47 | 47.08504 | 154.44649 | 36873 ft | 374 kts | 234° |
| 2026-05-08 07:48 | 47.05122 | 154.38882 | 36874 ft | 373 kts | 234° |
| 2026-05-08 07:48 | 47.01749 | 154.33144 | 36891 ft | 374 kts | 233° |
| 2026-05-08 07:49 | 46.98357 | 154.27385 | 36885 ft | 373 kts | 234° |
| 2026-05-08 07:49 | 46.94957 | 154.21625 | 36883 ft | 376 kts | 234° |
| 2026-05-08 07:50 | 46.91544 | 154.15855 | 36882 ft | 374 kts | 233° |
| 2026-05-08 07:50 | 46.88149 | 154.10127 | 36893 ft | 376 kts | 233° |
| 2026-05-08 07:51 | 46.84719 | 154.04355 | 36882 ft | 377 kts | 233° |
| 2026-05-08 07:51 | 46.81311 | 153.98630 | 36884 ft | 376 kts | 233° |
| 2026-05-08 07:52 | 46.77867 | 153.92856 | 36884 ft | 378 kts | 233° |
| 2026-05-08 07:52 | 46.74440 | 153.87123 | 36880 ft | 376 kts | 233° |
| 2026-05-08 07:53 | 46.71013 | 153.81401 | 36884 ft | 377 kts | 233° |
| 2026-05-08 07:53 | 46.67557 | 153.75644 | 36884 ft | 378 kts | 233° |
| 2026-05-08 07:54 | 46.64114 | 153.69923 | 36879 ft | 377 kts | 233° |
| 2026-05-08 07:54 | 46.60674 | 153.64215 | 36881 ft | 377 kts | 233° |
| 2026-05-08 07:55 | 46.57220 | 153.58498 | 36874 ft | 379 kts | 233° |
| 2026-05-08 07:55 | 46.53757 | 153.52777 | 36879 ft | 377 kts | 233° |
| 2026-05-08 07:56 | 46.50276 | 153.47038 | 36869 ft | 380 kts | 233° |
| 2026-05-08 07:56 | 46.46811 | 153.41339 | 36867 ft | 379 kts | 233° |
| 2026-05-08 07:57 | 46.43305 | 153.35586 | 36863 ft | 379 kts | 233° |
| 2026-05-08 07:57 | 46.39829 | 153.29894 | 36886 ft | 379 kts | 232° |
| 2026-05-08 07:58 | 46.36332 | 153.24176 | 36882 ft | 379 kts | 232° |
| 2026-05-08 07:58 | 46.32834 | 153.18469 | 36876 ft | 381 kts | 232° |
| 2026-05-08 07:59 | 46.29349 | 153.12797 | 36874 ft | 380 kts | 232° |
| 2026-05-08 07:59 | 46.25846 | 153.07108 | 36876 ft | 379 kts | 232° |
| 2026-05-08 08:00 | 46.22351 | 153.01442 | 36881 ft | 379 kts | 232° |
| 2026-05-08 08:00 | 46.18812 | 152.95769 | 36882 ft | 381 kts | 232° |
| 2026-05-08 08:01 | 46.15266 | 152.90109 | 36879 ft | 380 kts | 232° |
| 2026-05-08 08:01 | 46.11745 | 152.84502 | 36881 ft | 380 kts | 231° |
| 2026-05-08 08:02 | 46.08187 | 152.78844 | 36873 ft | 382 kts | 232° |
| 2026-05-08 08:02 | 46.04639 | 152.73216 | 36873 ft | 381 kts | 232° |
| 2026-05-08 08:03 | 46.01066 | 152.67560 | 36866 ft | 383 kts | 231° |
| 2026-05-08 08:03 | 45.97498 | 152.61925 | 36865 ft | 381 kts | 231° |
| 2026-05-08 08:04 | 45.93928 | 152.56296 | 36858 ft | 382 kts | 231° |
| 2026-05-08 08:04 | 45.90380 | 152.50716 | 36865 ft | 382 kts | 232° |
| 2026-05-08 08:05 | 45.86799 | 152.45091 | 36872 ft | 384 kts | 232° |
| 2026-05-08 08:05 | 45.83198 | 152.39450 | 36874 ft | 384 kts | 231° |
| 2026-05-08 08:06 | 45.79610 | 152.33841 | 36877 ft | 383 kts | 231° |
| 2026-05-08 08:06 | 45.76000 | 152.28207 | 36879 ft | 383 kts | 231° |
| 2026-05-08 08:07 | 45.72411 | 152.22618 | 36869 ft | 384 kts | 231° |
| 2026-05-08 08:07 | 45.68802 | 152.17011 | 36862 ft | 385 kts | 230° |
| 2026-05-08 08:08 | 45.65183 | 152.11398 | 36859 ft | 385 kts | 231° |
| 2026-05-08 08:08 | 45.61544 | 152.05766 | 36858 ft | 385 kts | 230° |
| 2026-05-08 08:09 | 45.57951 | 152.00217 | 36864 ft | 383 kts | 230° |
| 2026-05-08 08:09 | 45.54319 | 151.94620 | 36862 ft | 384 kts | 230° |
| 2026-05-08 08:10 | 45.50700 | 151.89052 | 36852 ft | 386 kts | 230° |
| 2026-05-08 08:10 | 45.47052 | 151.83453 | 36848 ft | 384 kts | 230° |
| 2026-05-08 08:11 | 45.43428 | 151.77902 | 36846 ft | 386 kts | 230° |
| 2026-05-08 08:11 | 45.39757 | 151.72290 | 36845 ft | 386 kts | 230° |
| 2026-05-08 08:12 | 45.36107 | 151.66721 | 36838 ft | 388 kts | 230° |
| 2026-05-08 08:12 | 45.32453 | 151.61159 | 36834 ft | 388 kts | 230° |
| 2026-05-08 08:13 | 45.28796 | 151.55602 | 36842 ft | 386 kts | 230° |
| 2026-05-08 08:13 | 45.25111 | 151.50014 | 36833 ft | 387 kts | 230° |
| 2026-05-08 08:14 | 45.21457 | 151.44484 | 36834 ft | 386 kts | 230° |